<?xml version="1.0" encoding="UTF-8" standalone="no" ?>
<gpx xmlns="http://www.topografix.com/GPX/1/1" xmlns:xsi="http://www.w3.org/2001/XMLSchema-instance" xsi:schemaLocation="http://www.topografix.com/GPX/1/1 http://www.topografix.com/GPX/1/1/gpx.xsd" version="1.1" creator="VisuGPX - https://www.visugpx.com">
  <metadata>
    <name>Endoru du Vogelat</name>
    <desc><![CDATA[Circuit Enduro au départ du Gite de la Martinette

Monter tranquille sur la route et piste pour Pincerie et descente trés technique par endroit.
Des passages bien interessant à travailler. Fait avec un petit suspendu 140mm.
Ambiance magnifique et personne. ]]></desc>
  </metadata>
  <trk>
    <name><![CDATA[05-JUL-17 01:41:19 PM]]></name>
    <trkseg>
      <trkpt lat="45.28057" lon="6.07303">
        <ele>1093.64</ele>
        <time>2017-07-05T09:40:06Z</time>
      </trkpt>
      <trkpt lat="45.28088" lon="6.07289">
        <ele>1095.08</ele>
        <time>2017-07-05T09:40:20Z</time>
      </trkpt>
      <trkpt lat="45.28117" lon="6.0728">
        <ele>1096.52</ele>
        <time>2017-07-05T09:40:33Z</time>
      </trkpt>
      <trkpt lat="45.28148" lon="6.07266">
        <ele>1100.85</ele>
        <time>2017-07-05T09:40:48Z</time>
      </trkpt>
      <trkpt lat="45.2817" lon="6.07255">
        <ele>1108.06</ele>
        <time>2017-07-05T09:41:00Z</time>
      </trkpt>
      <trkpt lat="45.28194" lon="6.07239">
        <ele>1119.59</ele>
        <time>2017-07-05T09:41:13Z</time>
      </trkpt>
      <trkpt lat="45.28215" lon="6.0722">
        <ele>1125.36</ele>
        <time>2017-07-05T09:41:25Z</time>
      </trkpt>
      <trkpt lat="45.28248" lon="6.07202">
        <ele>1126.32</ele>
        <time>2017-07-05T09:41:40Z</time>
      </trkpt>
      <trkpt lat="45.28275" lon="6.07202">
        <ele>1126.32</ele>
        <time>2017-07-05T09:41:53Z</time>
      </trkpt>
      <trkpt lat="45.28303" lon="6.07197">
        <ele>1128.73</ele>
        <time>2017-07-05T09:42:06Z</time>
      </trkpt>
      <trkpt lat="45.28337" lon="6.07187">
        <ele>1128.24</ele>
        <time>2017-07-05T09:42:21Z</time>
      </trkpt>
      <trkpt lat="45.28339" lon="6.07186">
        <ele>1128.24</ele>
        <time>2017-07-05T09:42:22Z</time>
      </trkpt>
      <trkpt lat="45.28346" lon="6.07185">
        <ele>1130.17</ele>
        <time>2017-07-05T09:42:26Z</time>
      </trkpt>
      <trkpt lat="45.28371" lon="6.07178">
        <ele>1136.9</ele>
        <time>2017-07-05T09:42:41Z</time>
      </trkpt>
      <trkpt lat="45.28395" lon="6.07168">
        <ele>1139.3</ele>
        <time>2017-07-05T09:42:53Z</time>
      </trkpt>
      <trkpt lat="45.28418" lon="6.07169">
        <ele>1139.3</ele>
        <time>2017-07-05T09:43:03Z</time>
      </trkpt>
      <trkpt lat="45.28448" lon="6.07174">
        <ele>1139.3</ele>
        <time>2017-07-05T09:43:16Z</time>
      </trkpt>
      <trkpt lat="45.28474" lon="6.07169">
        <ele>1146.99</ele>
        <time>2017-07-05T09:43:28Z</time>
      </trkpt>
      <trkpt lat="45.28482" lon="6.07169">
        <ele>1146.51</ele>
        <time>2017-07-05T09:43:32Z</time>
      </trkpt>
      <trkpt lat="45.28512" lon="6.0716">
        <ele>1146.51</ele>
        <time>2017-07-05T09:43:47Z</time>
      </trkpt>
      <trkpt lat="45.2854" lon="6.07147">
        <ele>1148.43</ele>
        <time>2017-07-05T09:44:01Z</time>
      </trkpt>
      <trkpt lat="45.28573" lon="6.07126">
        <ele>1147.95</ele>
        <time>2017-07-05T09:44:17Z</time>
      </trkpt>
      <trkpt lat="45.28608" lon="6.07116">
        <ele>1147.47</ele>
        <time>2017-07-05T09:44:31Z</time>
      </trkpt>
      <trkpt lat="45.2864" lon="6.07103">
        <ele>1148.43</ele>
        <time>2017-07-05T09:44:47Z</time>
      </trkpt>
      <trkpt lat="45.28642" lon="6.07091">
        <ele>1146.99</ele>
        <time>2017-07-05T09:44:51Z</time>
      </trkpt>
      <trkpt lat="45.28616" lon="6.07077">
        <ele>1146.51</ele>
        <time>2017-07-05T09:45:04Z</time>
      </trkpt>
      <trkpt lat="45.2859" lon="6.07082">
        <ele>1146.03</ele>
        <time>2017-07-05T09:45:17Z</time>
      </trkpt>
      <trkpt lat="45.2856" lon="6.07089">
        <ele>1149.87</ele>
        <time>2017-07-05T09:45:31Z</time>
      </trkpt>
      <trkpt lat="45.28525" lon="6.07091">
        <ele>1154.2</ele>
        <time>2017-07-05T09:45:48Z</time>
      </trkpt>
      <trkpt lat="45.28494" lon="6.07086">
        <ele>1154.2</ele>
        <time>2017-07-05T09:46:03Z</time>
      </trkpt>
      <trkpt lat="45.28468" lon="6.07093">
        <ele>1154.2</ele>
        <time>2017-07-05T09:46:15Z</time>
      </trkpt>
      <trkpt lat="45.28442" lon="6.07096">
        <ele>1154.2</ele>
        <time>2017-07-05T09:46:27Z</time>
      </trkpt>
      <trkpt lat="45.28411" lon="6.07081">
        <ele>1154.2</ele>
        <time>2017-07-05T09:46:41Z</time>
      </trkpt>
      <trkpt lat="45.28384" lon="6.07068">
        <ele>1154.68</ele>
        <time>2017-07-05T09:46:54Z</time>
      </trkpt>
      <trkpt lat="45.28381" lon="6.07056">
        <ele>1154.68</ele>
        <time>2017-07-05T09:46:58Z</time>
      </trkpt>
      <trkpt lat="45.28401" lon="6.07052">
        <ele>1154.68</ele>
        <time>2017-07-05T09:47:08Z</time>
      </trkpt>
      <trkpt lat="45.28435" lon="6.07058">
        <ele>1155.16</ele>
        <time>2017-07-05T09:47:22Z</time>
      </trkpt>
      <trkpt lat="45.28465" lon="6.0705">
        <ele>1157.08</ele>
        <time>2017-07-05T09:47:35Z</time>
      </trkpt>
      <trkpt lat="45.28488" lon="6.0704">
        <ele>1158.53</ele>
        <time>2017-07-05T09:47:47Z</time>
      </trkpt>
      <trkpt lat="45.28515" lon="6.07026">
        <ele>1159.01</ele>
        <time>2017-07-05T09:48:00Z</time>
      </trkpt>
      <trkpt lat="45.28543" lon="6.07014">
        <ele>1159.49</ele>
        <time>2017-07-05T09:48:12Z</time>
      </trkpt>
      <trkpt lat="45.28574" lon="6.07006">
        <ele>1164.29</ele>
        <time>2017-07-05T09:48:26Z</time>
      </trkpt>
      <trkpt lat="45.28597" lon="6.06998">
        <ele>1168.14</ele>
        <time>2017-07-05T09:48:36Z</time>
      </trkpt>
      <trkpt lat="45.28627" lon="6.06995">
        <ele>1174.87</ele>
        <time>2017-07-05T09:48:52Z</time>
      </trkpt>
      <trkpt lat="45.2866" lon="6.06976">
        <ele>1179.67</ele>
        <time>2017-07-05T09:49:10Z</time>
      </trkpt>
      <trkpt lat="45.28685" lon="6.06927">
        <ele>1182.56</ele>
        <time>2017-07-05T09:49:29Z</time>
      </trkpt>
      <trkpt lat="45.28701" lon="6.0689">
        <ele>1186.4</ele>
        <time>2017-07-05T09:49:43Z</time>
      </trkpt>
      <trkpt lat="45.2868" lon="6.06881">
        <ele>1186.88</ele>
        <time>2017-07-05T09:49:54Z</time>
      </trkpt>
      <trkpt lat="45.28658" lon="6.06917">
        <ele>1188.33</ele>
        <time>2017-07-05T09:50:08Z</time>
      </trkpt>
      <trkpt lat="45.28632" lon="6.0694">
        <ele>1190.73</ele>
        <time>2017-07-05T09:50:21Z</time>
      </trkpt>
      <trkpt lat="45.28601" lon="6.06959">
        <ele>1194.09</ele>
        <time>2017-07-05T09:50:36Z</time>
      </trkpt>
      <trkpt lat="45.28571" lon="6.06967">
        <ele>1196.5</ele>
        <time>2017-07-05T09:50:50Z</time>
      </trkpt>
      <trkpt lat="45.28533" lon="6.06957">
        <ele>1198.42</ele>
        <time>2017-07-05T09:51:07Z</time>
      </trkpt>
      <trkpt lat="45.28503" lon="6.06952">
        <ele>1198.9</ele>
        <time>2017-07-05T09:51:20Z</time>
      </trkpt>
      <trkpt lat="45.28476" lon="6.06956">
        <ele>1200.82</ele>
        <time>2017-07-05T09:51:32Z</time>
      </trkpt>
      <trkpt lat="45.28437" lon="6.06963">
        <ele>1205.63</ele>
        <time>2017-07-05T09:51:47Z</time>
      </trkpt>
      <trkpt lat="45.28423" lon="6.06953">
        <ele>1209</ele>
        <time>2017-07-05T09:51:54Z</time>
      </trkpt>
      <trkpt lat="45.28433" lon="6.06941">
        <ele>1210.92</ele>
        <time>2017-07-05T09:52:01Z</time>
      </trkpt>
      <trkpt lat="45.28472" lon="6.06941">
        <ele>1219.09</ele>
        <time>2017-07-05T09:52:18Z</time>
      </trkpt>
      <trkpt lat="45.28503" lon="6.0693">
        <ele>1229.66</ele>
        <time>2017-07-05T09:52:31Z</time>
      </trkpt>
      <trkpt lat="45.28535" lon="6.0692">
        <ele>1238.8</ele>
        <time>2017-07-05T09:52:46Z</time>
      </trkpt>
      <trkpt lat="45.28574" lon="6.06903">
        <ele>1239.28</ele>
        <time>2017-07-05T09:53:04Z</time>
      </trkpt>
      <trkpt lat="45.28596" lon="6.06871">
        <ele>1233.99</ele>
        <time>2017-07-05T09:53:18Z</time>
      </trkpt>
      <trkpt lat="45.28617" lon="6.06826">
        <ele>1233.99</ele>
        <time>2017-07-05T09:53:35Z</time>
      </trkpt>
      <trkpt lat="45.28638" lon="6.06822">
        <ele>1243.12</ele>
        <time>2017-07-05T09:53:46Z</time>
      </trkpt>
      <trkpt lat="45.28664" lon="6.0682">
        <ele>1254.66</ele>
        <time>2017-07-05T09:54:00Z</time>
      </trkpt>
      <trkpt lat="45.28703" lon="6.06783">
        <ele>1247.45</ele>
        <time>2017-07-05T09:54:17Z</time>
      </trkpt>
      <trkpt lat="45.2873" lon="6.06777">
        <ele>1254.18</ele>
        <time>2017-07-05T09:54:31Z</time>
      </trkpt>
      <trkpt lat="45.28762" lon="6.06773">
        <ele>1259.94</ele>
        <time>2017-07-05T09:54:44Z</time>
      </trkpt>
      <trkpt lat="45.28798" lon="6.06766">
        <ele>1270.52</ele>
        <time>2017-07-05T09:54:58Z</time>
      </trkpt>
      <trkpt lat="45.2882" lon="6.06754">
        <ele>1270.04</ele>
        <time>2017-07-05T09:55:10Z</time>
      </trkpt>
      <trkpt lat="45.28796" lon="6.06743">
        <ele>1264.27</ele>
        <time>2017-07-05T09:55:21Z</time>
      </trkpt>
      <trkpt lat="45.28762" lon="6.06746">
        <ele>1260.43</ele>
        <time>2017-07-05T09:55:36Z</time>
      </trkpt>
      <trkpt lat="45.28738" lon="6.06733">
        <ele>1255.62</ele>
        <time>2017-07-05T09:55:48Z</time>
      </trkpt>
      <trkpt lat="45.28711" lon="6.06725">
        <ele>1253.22</ele>
        <time>2017-07-05T09:56:00Z</time>
      </trkpt>
      <trkpt lat="45.28676" lon="6.06741">
        <ele>1255.14</ele>
        <time>2017-07-05T09:56:16Z</time>
      </trkpt>
      <trkpt lat="45.28652" lon="6.06753">
        <ele>1257.06</ele>
        <time>2017-07-05T09:56:27Z</time>
      </trkpt>
      <trkpt lat="45.28616" lon="6.06741">
        <ele>1256.1</ele>
        <time>2017-07-05T09:56:42Z</time>
      </trkpt>
      <trkpt lat="45.28587" lon="6.06739">
        <ele>1257.06</ele>
        <time>2017-07-05T09:56:55Z</time>
      </trkpt>
      <trkpt lat="45.28582" lon="6.06741">
        <ele>1257.54</ele>
        <time>2017-07-05T09:56:57Z</time>
      </trkpt>
      <trkpt lat="45.28547" lon="6.0677">
        <ele>1265.23</ele>
        <time>2017-07-05T09:57:13Z</time>
      </trkpt>
      <trkpt lat="45.28526" lon="6.06784">
        <ele>1267.64</ele>
        <time>2017-07-05T09:57:24Z</time>
      </trkpt>
      <trkpt lat="45.28487" lon="6.06796">
        <ele>1269.08</ele>
        <time>2017-07-05T09:57:41Z</time>
      </trkpt>
      <trkpt lat="45.28458" lon="6.06792">
        <ele>1270.04</ele>
        <time>2017-07-05T09:57:54Z</time>
      </trkpt>
      <trkpt lat="45.28434" lon="6.06784">
        <ele>1270.04</ele>
        <time>2017-07-05T09:58:06Z</time>
      </trkpt>
      <trkpt lat="45.28399" lon="6.06779">
        <ele>1273.88</ele>
        <time>2017-07-05T09:58:21Z</time>
      </trkpt>
      <trkpt lat="45.28366" lon="6.0678">
        <ele>1276.29</ele>
        <time>2017-07-05T09:58:34Z</time>
      </trkpt>
      <trkpt lat="45.28325" lon="6.0679">
        <ele>1283.5</ele>
        <time>2017-07-05T09:58:51Z</time>
      </trkpt>
      <trkpt lat="45.283" lon="6.06798">
        <ele>1287.34</ele>
        <time>2017-07-05T09:59:03Z</time>
      </trkpt>
      <trkpt lat="45.28272" lon="6.06807">
        <ele>1292.15</ele>
        <time>2017-07-05T09:59:15Z</time>
      </trkpt>
      <trkpt lat="45.28247" lon="6.068">
        <ele>1293.11</ele>
        <time>2017-07-05T09:59:26Z</time>
      </trkpt>
      <trkpt lat="45.28253" lon="6.0678">
        <ele>1296.48</ele>
        <time>2017-07-05T09:59:35Z</time>
      </trkpt>
      <trkpt lat="45.28279" lon="6.06783">
        <ele>1300.32</ele>
        <time>2017-07-05T09:59:46Z</time>
      </trkpt>
      <trkpt lat="45.28305" lon="6.06776">
        <ele>1307.53</ele>
        <time>2017-07-05T09:59:58Z</time>
      </trkpt>
      <trkpt lat="45.2833" lon="6.06759">
        <ele>1315.7</ele>
        <time>2017-07-05T10:00:09Z</time>
      </trkpt>
      <trkpt lat="45.28365" lon="6.06754">
        <ele>1326.28</ele>
        <time>2017-07-05T10:00:26Z</time>
      </trkpt>
      <trkpt lat="45.28385" lon="6.06751">
        <ele>1334.45</ele>
        <time>2017-07-05T10:00:35Z</time>
      </trkpt>
      <trkpt lat="45.28418" lon="6.06747">
        <ele>1340.7</ele>
        <time>2017-07-05T10:00:47Z</time>
      </trkpt>
      <trkpt lat="45.28442" lon="6.06741">
        <ele>1337.81</ele>
        <time>2017-07-05T10:00:55Z</time>
      </trkpt>
      <trkpt lat="45.28471" lon="6.06735">
        <ele>1333.01</ele>
        <time>2017-07-05T10:01:07Z</time>
      </trkpt>
      <trkpt lat="45.28494" lon="6.06696">
        <ele>1323.87</ele>
        <time>2017-07-05T10:01:22Z</time>
      </trkpt>
      <trkpt lat="45.28516" lon="6.06645">
        <ele>1322.43</ele>
        <time>2017-07-05T10:01:40Z</time>
      </trkpt>
      <trkpt lat="45.28539" lon="6.06625">
        <ele>1326.28</ele>
        <time>2017-07-05T10:01:53Z</time>
      </trkpt>
      <trkpt lat="45.28563" lon="6.0662">
        <ele>1334.45</ele>
        <time>2017-07-05T10:02:04Z</time>
      </trkpt>
      <trkpt lat="45.28596" lon="6.06617">
        <ele>1343.1</ele>
        <time>2017-07-05T10:02:16Z</time>
      </trkpt>
      <trkpt lat="45.28633" lon="6.06611">
        <ele>1352.23</ele>
        <time>2017-07-05T10:02:29Z</time>
      </trkpt>
      <trkpt lat="45.28668" lon="6.06595">
        <ele>1351.27</ele>
        <time>2017-07-05T10:02:44Z</time>
      </trkpt>
      <trkpt lat="45.28653" lon="6.06573">
        <ele>1345.5</ele>
        <time>2017-07-05T10:02:54Z</time>
      </trkpt>
      <trkpt lat="45.28617" lon="6.06588">
        <ele>1343.1</ele>
        <time>2017-07-05T10:03:08Z</time>
      </trkpt>
      <trkpt lat="45.28588" lon="6.06578">
        <ele>1341.66</ele>
        <time>2017-07-05T10:03:20Z</time>
      </trkpt>
      <trkpt lat="45.28553" lon="6.06575">
        <ele>1340.7</ele>
        <time>2017-07-05T10:03:35Z</time>
      </trkpt>
      <trkpt lat="45.28525" lon="6.06575">
        <ele>1337.81</ele>
        <time>2017-07-05T10:03:47Z</time>
      </trkpt>
      <trkpt lat="45.28491" lon="6.06581">
        <ele>1336.37</ele>
        <time>2017-07-05T10:04:02Z</time>
      </trkpt>
      <trkpt lat="45.28466" lon="6.06595">
        <ele>1340.7</ele>
        <time>2017-07-05T10:04:14Z</time>
      </trkpt>
      <trkpt lat="45.28435" lon="6.06614">
        <ele>1345.98</ele>
        <time>2017-07-05T10:04:27Z</time>
      </trkpt>
      <trkpt lat="45.2841" lon="6.06628">
        <ele>1350.31</ele>
        <time>2017-07-05T10:04:40Z</time>
      </trkpt>
      <trkpt lat="45.28381" lon="6.06648">
        <ele>1353.67</ele>
        <time>2017-07-05T10:04:52Z</time>
      </trkpt>
      <trkpt lat="45.28351" lon="6.06653">
        <ele>1354.15</ele>
        <time>2017-07-05T10:05:05Z</time>
      </trkpt>
      <trkpt lat="45.28314" lon="6.0665">
        <ele>1355.6</ele>
        <time>2017-07-05T10:05:21Z</time>
      </trkpt>
      <trkpt lat="45.28296" lon="6.06645">
        <ele>1356.08</ele>
        <time>2017-07-05T10:05:31Z</time>
      </trkpt>
      <trkpt lat="45.28289" lon="6.0664">
        <ele>1356.08</ele>
        <time>2017-07-05T10:05:36Z</time>
      </trkpt>
      <trkpt lat="45.28264" lon="6.06633">
        <ele>1356.08</ele>
        <time>2017-07-05T10:05:49Z</time>
      </trkpt>
      <trkpt lat="45.28235" lon="6.06622">
        <ele>1356.56</ele>
        <time>2017-07-05T10:06:01Z</time>
      </trkpt>
      <trkpt lat="45.28215" lon="6.06612">
        <ele>1357.04</ele>
        <time>2017-07-05T10:06:10Z</time>
      </trkpt>
      <trkpt lat="45.28189" lon="6.06605">
        <ele>1361.36</ele>
        <time>2017-07-05T10:06:20Z</time>
      </trkpt>
      <trkpt lat="45.28164" lon="6.06592">
        <ele>1365.69</ele>
        <time>2017-07-05T10:06:32Z</time>
      </trkpt>
      <trkpt lat="45.28133" lon="6.06587">
        <ele>1369.54</ele>
        <time>2017-07-05T10:06:45Z</time>
      </trkpt>
      <trkpt lat="45.28103" lon="6.06576">
        <ele>1370.5</ele>
        <time>2017-07-05T10:06:59Z</time>
      </trkpt>
      <trkpt lat="45.28077" lon="6.06563">
        <ele>1371.46</ele>
        <time>2017-07-05T10:07:11Z</time>
      </trkpt>
      <trkpt lat="45.28049" lon="6.06549">
        <ele>1374.82</ele>
        <time>2017-07-05T10:07:23Z</time>
      </trkpt>
      <trkpt lat="45.28016" lon="6.06531">
        <ele>1378.67</ele>
        <time>2017-07-05T10:07:37Z</time>
      </trkpt>
      <trkpt lat="45.27987" lon="6.06506">
        <ele>1382.51</ele>
        <time>2017-07-05T10:07:52Z</time>
      </trkpt>
      <trkpt lat="45.27966" lon="6.06477">
        <ele>1383.47</ele>
        <time>2017-07-05T10:08:04Z</time>
      </trkpt>
      <trkpt lat="45.27947" lon="6.06436">
        <ele>1385.88</ele>
        <time>2017-07-05T10:08:19Z</time>
      </trkpt>
      <trkpt lat="45.27933" lon="6.06397">
        <ele>1386.84</ele>
        <time>2017-07-05T10:08:33Z</time>
      </trkpt>
      <trkpt lat="45.27914" lon="6.06355">
        <ele>1389.72</ele>
        <time>2017-07-05T10:08:49Z</time>
      </trkpt>
      <trkpt lat="45.27897" lon="6.06323">
        <ele>1392.13</ele>
        <time>2017-07-05T10:09:03Z</time>
      </trkpt>
      <trkpt lat="45.27878" lon="6.06288">
        <ele>1395.49</ele>
        <time>2017-07-05T10:09:18Z</time>
      </trkpt>
      <trkpt lat="45.27863" lon="6.06237">
        <ele>1399.34</ele>
        <time>2017-07-05T10:09:37Z</time>
      </trkpt>
      <trkpt lat="45.27856" lon="6.06192">
        <ele>1401.26</ele>
        <time>2017-07-05T10:09:52Z</time>
      </trkpt>
      <trkpt lat="45.27851" lon="6.06148">
        <ele>1403.18</ele>
        <time>2017-07-05T10:10:07Z</time>
      </trkpt>
      <trkpt lat="45.27843" lon="6.06098">
        <ele>1406.55</ele>
        <time>2017-07-05T10:10:24Z</time>
      </trkpt>
      <trkpt lat="45.27829" lon="6.06057">
        <ele>1408.95</ele>
        <time>2017-07-05T10:10:39Z</time>
      </trkpt>
      <trkpt lat="45.2782" lon="6.06002">
        <ele>1411.35</ele>
        <time>2017-07-05T10:10:57Z</time>
      </trkpt>
      <trkpt lat="45.27814" lon="6.05964">
        <ele>1412.31</ele>
        <time>2017-07-05T10:11:09Z</time>
      </trkpt>
      <trkpt lat="45.27799" lon="6.05921">
        <ele>1415.2</ele>
        <time>2017-07-05T10:11:24Z</time>
      </trkpt>
      <trkpt lat="45.27784" lon="6.05888">
        <ele>1420</ele>
        <time>2017-07-05T10:11:37Z</time>
      </trkpt>
      <trkpt lat="45.27767" lon="6.0585">
        <ele>1422.41</ele>
        <time>2017-07-05T10:11:52Z</time>
      </trkpt>
      <trkpt lat="45.27745" lon="6.0582">
        <ele>1423.37</ele>
        <time>2017-07-05T10:12:06Z</time>
      </trkpt>
      <trkpt lat="45.27718" lon="6.05809">
        <ele>1424.33</ele>
        <time>2017-07-05T10:12:19Z</time>
      </trkpt>
      <trkpt lat="45.27694" lon="6.05814">
        <ele>1425.77</ele>
        <time>2017-07-05T10:12:31Z</time>
      </trkpt>
      <trkpt lat="45.27673" lon="6.05847">
        <ele>1427.7</ele>
        <time>2017-07-05T10:12:46Z</time>
      </trkpt>
      <trkpt lat="45.27645" lon="6.05888">
        <ele>1430.58</ele>
        <time>2017-07-05T10:13:04Z</time>
      </trkpt>
      <trkpt lat="45.27625" lon="6.05922">
        <ele>1432.98</ele>
        <time>2017-07-05T10:13:18Z</time>
      </trkpt>
      <trkpt lat="45.27598" lon="6.05931">
        <ele>1434.91</ele>
        <time>2017-07-05T10:13:32Z</time>
      </trkpt>
      <trkpt lat="45.27572" lon="6.05894">
        <ele>1435.87</ele>
        <time>2017-07-05T10:13:47Z</time>
      </trkpt>
      <trkpt lat="45.27549" lon="6.0584">
        <ele>1437.31</ele>
        <time>2017-07-05T10:14:04Z</time>
      </trkpt>
      <trkpt lat="45.27526" lon="6.05803">
        <ele>1438.27</ele>
        <time>2017-07-05T10:14:17Z</time>
      </trkpt>
      <trkpt lat="45.27491" lon="6.0578">
        <ele>1438.75</ele>
        <time>2017-07-05T10:14:31Z</time>
      </trkpt>
      <trkpt lat="45.27443" lon="6.05774">
        <ele>1442.11</ele>
        <time>2017-07-05T10:14:48Z</time>
      </trkpt>
      <trkpt lat="45.27399" lon="6.05757">
        <ele>1443.08</ele>
        <time>2017-07-05T10:15:04Z</time>
      </trkpt>
      <trkpt lat="45.2734" lon="6.05743">
        <ele>1445.96</ele>
        <time>2017-07-05T10:15:24Z</time>
      </trkpt>
      <trkpt lat="45.27296" lon="6.05704">
        <ele>1445.96</ele>
        <time>2017-07-05T10:15:41Z</time>
      </trkpt>
      <trkpt lat="45.27263" lon="6.05666">
        <ele>1447.4</ele>
        <time>2017-07-05T10:15:55Z</time>
      </trkpt>
      <trkpt lat="45.27236" lon="6.05605">
        <ele>1447.88</ele>
        <time>2017-07-05T10:16:12Z</time>
      </trkpt>
      <trkpt lat="45.27213" lon="6.0556">
        <ele>1448.84</ele>
        <time>2017-07-05T10:16:25Z</time>
      </trkpt>
      <trkpt lat="45.27174" lon="6.05544">
        <ele>1452.69</ele>
        <time>2017-07-05T10:16:39Z</time>
      </trkpt>
      <trkpt lat="45.27126" lon="6.05537">
        <ele>1454.13</ele>
        <time>2017-07-05T10:16:55Z</time>
      </trkpt>
      <trkpt lat="45.27082" lon="6.05523">
        <ele>1453.65</ele>
        <time>2017-07-05T10:17:09Z</time>
      </trkpt>
      <trkpt lat="45.27036" lon="6.05505">
        <ele>1453.17</ele>
        <time>2017-07-05T10:17:24Z</time>
      </trkpt>
      <trkpt lat="45.27022" lon="6.05482">
        <ele>1453.65</ele>
        <time>2017-07-05T10:17:33Z</time>
      </trkpt>
      <trkpt lat="45.27019" lon="6.0547">
        <ele>1455.57</ele>
        <time>2017-07-05T10:17:39Z</time>
      </trkpt>
      <trkpt lat="45.27025" lon="6.05452">
        <ele>1457.5</ele>
        <time>2017-07-05T10:17:48Z</time>
      </trkpt>
      <trkpt lat="45.27054" lon="6.05464">
        <ele>1457.98</ele>
        <time>2017-07-05T10:18:01Z</time>
      </trkpt>
      <trkpt lat="45.27085" lon="6.05478">
        <ele>1458.94</ele>
        <time>2017-07-05T10:18:16Z</time>
      </trkpt>
      <trkpt lat="45.27089" lon="6.05479">
        <ele>1458.94</ele>
        <time>2017-07-05T10:18:18Z</time>
      </trkpt>
      <trkpt lat="45.27096" lon="6.05468">
        <ele>1459.42</ele>
        <time>2017-07-05T10:18:23Z</time>
      </trkpt>
      <trkpt lat="45.27096" lon="6.05463">
        <ele>1459.9</ele>
        <time>2017-07-05T10:18:25Z</time>
      </trkpt>
      <trkpt lat="45.2708" lon="6.05435">
        <ele>1462.78</ele>
        <time>2017-07-05T10:18:40Z</time>
      </trkpt>
      <trkpt lat="45.27058" lon="6.05399">
        <ele>1465.67</ele>
        <time>2017-07-05T10:18:59Z</time>
      </trkpt>
      <trkpt lat="45.27033" lon="6.0537">
        <ele>1467.11</ele>
        <time>2017-07-05T10:19:16Z</time>
      </trkpt>
      <trkpt lat="45.27007" lon="6.0536">
        <ele>1470.47</ele>
        <time>2017-07-05T10:19:31Z</time>
      </trkpt>
      <trkpt lat="45.26989" lon="6.05338">
        <ele>1472.4</ele>
        <time>2017-07-05T10:19:44Z</time>
      </trkpt>
      <trkpt lat="45.26965" lon="6.05301">
        <ele>1471.44</ele>
        <time>2017-07-05T10:20:01Z</time>
      </trkpt>
      <trkpt lat="45.26947" lon="6.05272">
        <ele>1472.4</ele>
        <time>2017-07-05T10:20:14Z</time>
      </trkpt>
      <trkpt lat="45.26926" lon="6.05257">
        <ele>1477.68</ele>
        <time>2017-07-05T10:20:30Z</time>
      </trkpt>
      <trkpt lat="45.26921" lon="6.05255">
        <ele>1479.13</ele>
        <time>2017-07-05T10:20:34Z</time>
      </trkpt>
      <trkpt lat="45.26913" lon="6.05254">
        <ele>1480.57</ele>
        <time>2017-07-05T10:20:40Z</time>
      </trkpt>
      <trkpt lat="45.26895" lon="6.05252">
        <ele>1485.37</ele>
        <time>2017-07-05T10:20:54Z</time>
      </trkpt>
      <trkpt lat="45.26888" lon="6.0525">
        <ele>1486.82</ele>
        <time>2017-07-05T10:21:01Z</time>
      </trkpt>
      <trkpt lat="45.26873" lon="6.05242">
        <ele>1490.18</ele>
        <time>2017-07-05T10:21:15Z</time>
      </trkpt>
      <trkpt lat="45.26862" lon="6.05232">
        <ele>1494.51</ele>
        <time>2017-07-05T10:21:28Z</time>
      </trkpt>
      <trkpt lat="45.26858" lon="6.05229">
        <ele>1495.95</ele>
        <time>2017-07-05T10:21:32Z</time>
      </trkpt>
      <trkpt lat="45.26852" lon="6.05228">
        <ele>1497.39</ele>
        <time>2017-07-05T10:21:37Z</time>
      </trkpt>
      <trkpt lat="45.26839" lon="6.05223">
        <ele>1499.79</ele>
        <time>2017-07-05T10:21:48Z</time>
      </trkpt>
      <trkpt lat="45.26829" lon="6.05211">
        <ele>1499.79</ele>
        <time>2017-07-05T10:21:57Z</time>
      </trkpt>
      <trkpt lat="45.26814" lon="6.05196">
        <ele>1501.24</ele>
        <time>2017-07-05T10:22:10Z</time>
      </trkpt>
      <trkpt lat="45.26798" lon="6.05189">
        <ele>1503.16</ele>
        <time>2017-07-05T10:22:23Z</time>
      </trkpt>
      <trkpt lat="45.26793" lon="6.05184">
        <ele>1504.12</ele>
        <time>2017-07-05T10:22:28Z</time>
      </trkpt>
      <trkpt lat="45.26777" lon="6.05177">
        <ele>1505.08</ele>
        <time>2017-07-05T10:22:39Z</time>
      </trkpt>
      <trkpt lat="45.26767" lon="6.05175">
        <ele>1505.08</ele>
        <time>2017-07-05T10:22:47Z</time>
      </trkpt>
      <trkpt lat="45.26743" lon="6.05174">
        <ele>1506.04</ele>
        <time>2017-07-05T10:23:03Z</time>
      </trkpt>
      <trkpt lat="45.26724" lon="6.05169">
        <ele>1507</ele>
        <time>2017-07-05T10:23:15Z</time>
      </trkpt>
      <trkpt lat="45.26707" lon="6.05155">
        <ele>1508.45</ele>
        <time>2017-07-05T10:23:28Z</time>
      </trkpt>
      <trkpt lat="45.26704" lon="6.05146">
        <ele>1509.89</ele>
        <time>2017-07-05T10:23:33Z</time>
      </trkpt>
      <trkpt lat="45.26702" lon="6.05138">
        <ele>1510.85</ele>
        <time>2017-07-05T10:23:37Z</time>
      </trkpt>
      <trkpt lat="45.2671" lon="6.05124">
        <ele>1513.25</ele>
        <time>2017-07-05T10:23:48Z</time>
      </trkpt>
      <trkpt lat="45.26714" lon="6.05122">
        <ele>1514.21</ele>
        <time>2017-07-05T10:23:52Z</time>
      </trkpt>
      <trkpt lat="45.26722" lon="6.05123">
        <ele>1515.66</ele>
        <time>2017-07-05T10:23:58Z</time>
      </trkpt>
      <trkpt lat="45.26728" lon="6.05127">
        <ele>1516.14</ele>
        <time>2017-07-05T10:24:03Z</time>
      </trkpt>
      <trkpt lat="45.26741" lon="6.05118">
        <ele>1516.62</ele>
        <time>2017-07-05T10:24:15Z</time>
      </trkpt>
      <trkpt lat="45.26745" lon="6.05109">
        <ele>1518.06</ele>
        <time>2017-07-05T10:24:21Z</time>
      </trkpt>
      <trkpt lat="45.26744" lon="6.05096">
        <ele>1519.02</ele>
        <time>2017-07-05T10:24:28Z</time>
      </trkpt>
      <trkpt lat="45.26734" lon="6.0508">
        <ele>1520.46</ele>
        <time>2017-07-05T10:24:41Z</time>
      </trkpt>
      <trkpt lat="45.26729" lon="6.05077">
        <ele>1520.94</ele>
        <time>2017-07-05T10:24:45Z</time>
      </trkpt>
      <trkpt lat="45.26716" lon="6.05065">
        <ele>1523.35</ele>
        <time>2017-07-05T10:24:57Z</time>
      </trkpt>
      <trkpt lat="45.26706" lon="6.0506">
        <ele>1525.27</ele>
        <time>2017-07-05T10:25:09Z</time>
      </trkpt>
      <trkpt lat="45.26691" lon="6.05064">
        <ele>1527.19</ele>
        <time>2017-07-05T10:25:19Z</time>
      </trkpt>
      <trkpt lat="45.2667" lon="6.05074">
        <ele>1528.63</ele>
        <time>2017-07-05T10:25:34Z</time>
      </trkpt>
      <trkpt lat="45.26651" lon="6.05076">
        <ele>1531.52</ele>
        <time>2017-07-05T10:25:49Z</time>
      </trkpt>
      <trkpt lat="45.26632" lon="6.05078">
        <ele>1533.44</ele>
        <time>2017-07-05T10:26:03Z</time>
      </trkpt>
      <trkpt lat="45.26616" lon="6.05076">
        <ele>1535.36</ele>
        <time>2017-07-05T10:26:17Z</time>
      </trkpt>
      <trkpt lat="45.266" lon="6.05058">
        <ele>1542.09</ele>
        <time>2017-07-05T10:26:34Z</time>
      </trkpt>
      <trkpt lat="45.26599" lon="6.05055">
        <ele>1542.57</ele>
        <time>2017-07-05T10:26:36Z</time>
      </trkpt>
      <trkpt lat="45.26601" lon="6.0505">
        <ele>1543.53</ele>
        <time>2017-07-05T10:26:40Z</time>
      </trkpt>
      <trkpt lat="45.26604" lon="6.05045">
        <ele>1545.46</ele>
        <time>2017-07-05T10:26:44Z</time>
      </trkpt>
      <trkpt lat="45.26614" lon="6.05037">
        <ele>1547.86</ele>
        <time>2017-07-05T10:26:52Z</time>
      </trkpt>
      <trkpt lat="45.26624" lon="6.05032">
        <ele>1549.3</ele>
        <time>2017-07-05T10:27:01Z</time>
      </trkpt>
      <trkpt lat="45.26628" lon="6.05026">
        <ele>1550.26</ele>
        <time>2017-07-05T10:27:07Z</time>
      </trkpt>
      <trkpt lat="45.26633" lon="6.05017">
        <ele>1552.19</ele>
        <time>2017-07-05T10:27:13Z</time>
      </trkpt>
      <trkpt lat="45.26648" lon="6.04997">
        <ele>1555.07</ele>
        <time>2017-07-05T10:27:30Z</time>
      </trkpt>
      <trkpt lat="45.2666" lon="6.04987">
        <ele>1558.43</ele>
        <time>2017-07-05T10:27:41Z</time>
      </trkpt>
      <trkpt lat="45.26677" lon="6.04977">
        <ele>1561.8</ele>
        <time>2017-07-05T10:27:55Z</time>
      </trkpt>
      <trkpt lat="45.26679" lon="6.04975">
        <ele>1561.8</ele>
        <time>2017-07-05T10:28:06Z</time>
      </trkpt>
      <trkpt lat="45.2669" lon="6.04969">
        <ele>1561.8</ele>
        <time>2017-07-05T10:28:20Z</time>
      </trkpt>
      <trkpt lat="45.26701" lon="6.04965">
        <ele>1561.32</ele>
        <time>2017-07-05T10:28:26Z</time>
      </trkpt>
      <trkpt lat="45.26707" lon="6.0496">
        <ele>1561.32</ele>
        <time>2017-07-05T10:28:31Z</time>
      </trkpt>
      <trkpt lat="45.26716" lon="6.04961">
        <ele>1561.32</ele>
        <time>2017-07-05T10:28:43Z</time>
      </trkpt>
      <trkpt lat="45.26721" lon="6.04968">
        <ele>1560.84</ele>
        <time>2017-07-05T10:28:52Z</time>
      </trkpt>
      <trkpt lat="45.26727" lon="6.04972">
        <ele>1560.84</ele>
        <time>2017-07-05T10:28:58Z</time>
      </trkpt>
      <trkpt lat="45.26731" lon="6.04973">
        <ele>1560.84</ele>
        <time>2017-07-05T10:29:04Z</time>
      </trkpt>
      <trkpt lat="45.26743" lon="6.04965">
        <ele>1560.84</ele>
        <time>2017-07-05T10:29:17Z</time>
      </trkpt>
      <trkpt lat="45.26752" lon="6.04964">
        <ele>1560.84</ele>
        <time>2017-07-05T10:29:27Z</time>
      </trkpt>
      <trkpt lat="45.26761" lon="6.04967">
        <ele>1560.84</ele>
        <time>2017-07-05T10:29:38Z</time>
      </trkpt>
      <trkpt lat="45.26782" lon="6.04966">
        <ele>1560.84</ele>
        <time>2017-07-05T10:29:44Z</time>
      </trkpt>
      <trkpt lat="45.26802" lon="6.04967">
        <ele>1560.36</ele>
        <time>2017-07-05T10:29:49Z</time>
      </trkpt>
      <trkpt lat="45.26809" lon="6.04967">
        <ele>1560.36</ele>
        <time>2017-07-05T10:29:52Z</time>
      </trkpt>
      <trkpt lat="45.26848" lon="6.04972">
        <ele>1585.35</ele>
        <time>2017-07-05T10:30:04Z</time>
      </trkpt>
      <trkpt lat="45.26859" lon="6.04974">
        <ele>1590.16</ele>
        <time>2017-07-05T10:30:10Z</time>
      </trkpt>
      <trkpt lat="45.26865" lon="6.04967">
        <ele>1590.64</ele>
        <time>2017-07-05T10:30:15Z</time>
      </trkpt>
      <trkpt lat="45.26858" lon="6.04942">
        <ele>1589.68</ele>
        <time>2017-07-05T10:30:31Z</time>
      </trkpt>
      <trkpt lat="45.26836" lon="6.04928">
        <ele>1589.2</ele>
        <time>2017-07-05T10:30:45Z</time>
      </trkpt>
      <trkpt lat="45.26817" lon="6.04925">
        <ele>1592.08</ele>
        <time>2017-07-05T10:30:59Z</time>
      </trkpt>
      <trkpt lat="45.26798" lon="6.04919">
        <ele>1593.04</ele>
        <time>2017-07-05T10:31:12Z</time>
      </trkpt>
      <trkpt lat="45.26777" lon="6.04919">
        <ele>1595.45</ele>
        <time>2017-07-05T10:31:27Z</time>
      </trkpt>
      <trkpt lat="45.26761" lon="6.04912">
        <ele>1595.93</ele>
        <time>2017-07-05T10:31:38Z</time>
      </trkpt>
      <trkpt lat="45.26749" lon="6.04904">
        <ele>1598.33</ele>
        <time>2017-07-05T10:31:48Z</time>
      </trkpt>
      <trkpt lat="45.2673" lon="6.04896">
        <ele>1602.17</ele>
        <time>2017-07-05T10:32:03Z</time>
      </trkpt>
      <trkpt lat="45.26727" lon="6.04896">
        <ele>1603.14</ele>
        <time>2017-07-05T10:32:06Z</time>
      </trkpt>
      <trkpt lat="45.26725" lon="6.04894">
        <ele>1603.62</ele>
        <time>2017-07-05T10:32:08Z</time>
      </trkpt>
      <trkpt lat="45.2673" lon="6.04882">
        <ele>1604.58</ele>
        <time>2017-07-05T10:32:17Z</time>
      </trkpt>
      <trkpt lat="45.26747" lon="6.04885">
        <ele>1609.38</ele>
        <time>2017-07-05T10:32:28Z</time>
      </trkpt>
      <trkpt lat="45.26758" lon="6.04881">
        <ele>1610.83</ele>
        <time>2017-07-05T10:32:37Z</time>
      </trkpt>
      <trkpt lat="45.26767" lon="6.04872">
        <ele>1611.79</ele>
        <time>2017-07-05T10:32:48Z</time>
      </trkpt>
      <trkpt lat="45.26779" lon="6.04862">
        <ele>1614.19</ele>
        <time>2017-07-05T10:32:59Z</time>
      </trkpt>
      <trkpt lat="45.26784" lon="6.04858">
        <ele>1614.67</ele>
        <time>2017-07-05T10:33:03Z</time>
      </trkpt>
      <trkpt lat="45.26791" lon="6.04853">
        <ele>1616.11</ele>
        <time>2017-07-05T10:33:09Z</time>
      </trkpt>
      <trkpt lat="45.26806" lon="6.04844">
        <ele>1617.07</ele>
        <time>2017-07-05T10:33:20Z</time>
      </trkpt>
      <trkpt lat="45.26824" lon="6.04834">
        <ele>1619</ele>
        <time>2017-07-05T10:33:34Z</time>
      </trkpt>
      <trkpt lat="45.26835" lon="6.04822">
        <ele>1620.44</ele>
        <time>2017-07-05T10:33:46Z</time>
      </trkpt>
      <trkpt lat="45.26839" lon="6.04819">
        <ele>1620.44</ele>
        <time>2017-07-05T10:33:51Z</time>
      </trkpt>
      <trkpt lat="45.2686" lon="6.04822">
        <ele>1621.4</ele>
        <time>2017-07-05T10:34:01Z</time>
      </trkpt>
      <trkpt lat="45.26888" lon="6.04809">
        <ele>1621.88</ele>
        <time>2017-07-05T10:34:16Z</time>
      </trkpt>
      <trkpt lat="45.26896" lon="6.04805">
        <ele>1621.88</ele>
        <time>2017-07-05T10:34:20Z</time>
      </trkpt>
      <trkpt lat="45.26925" lon="6.04783">
        <ele>1621.4</ele>
        <time>2017-07-05T10:34:35Z</time>
      </trkpt>
      <trkpt lat="45.26929" lon="6.04779">
        <ele>1621.4</ele>
        <time>2017-07-05T10:34:37Z</time>
      </trkpt>
      <trkpt lat="45.26942" lon="6.04758">
        <ele>1624.28</ele>
        <time>2017-07-05T10:34:49Z</time>
      </trkpt>
      <trkpt lat="45.26944" lon="6.04755">
        <ele>1624.77</ele>
        <time>2017-07-05T10:34:51Z</time>
      </trkpt>
      <trkpt lat="45.26953" lon="6.04745">
        <ele>1625.73</ele>
        <time>2017-07-05T10:34:58Z</time>
      </trkpt>
      <trkpt lat="45.26977" lon="6.04732">
        <ele>1628.61</ele>
        <time>2017-07-05T10:35:13Z</time>
      </trkpt>
      <trkpt lat="45.26992" lon="6.04718">
        <ele>1631.01</ele>
        <time>2017-07-05T10:35:25Z</time>
      </trkpt>
      <trkpt lat="45.27007" lon="6.04705">
        <ele>1632.94</ele>
        <time>2017-07-05T10:35:36Z</time>
      </trkpt>
      <trkpt lat="45.27033" lon="6.04718">
        <ele>1633.9</ele>
        <time>2017-07-05T10:35:51Z</time>
      </trkpt>
      <trkpt lat="45.27054" lon="6.04746">
        <ele>1633.9</ele>
        <time>2017-07-05T10:36:06Z</time>
      </trkpt>
      <trkpt lat="45.27057" lon="6.04751">
        <ele>1634.38</ele>
        <time>2017-07-05T10:36:09Z</time>
      </trkpt>
      <trkpt lat="45.27066" lon="6.04758">
        <ele>1635.34</ele>
        <time>2017-07-05T10:36:14Z</time>
      </trkpt>
      <trkpt lat="45.27085" lon="6.0478">
        <ele>1636.78</ele>
        <time>2017-07-05T10:36:27Z</time>
      </trkpt>
      <trkpt lat="45.27097" lon="6.04804">
        <ele>1637.26</ele>
        <time>2017-07-05T10:36:39Z</time>
      </trkpt>
      <trkpt lat="45.27121" lon="6.04825">
        <ele>1639.19</ele>
        <time>2017-07-05T10:36:56Z</time>
      </trkpt>
      <trkpt lat="45.27145" lon="6.04837">
        <ele>1642.55</ele>
        <time>2017-07-05T10:37:11Z</time>
      </trkpt>
      <trkpt lat="45.27163" lon="6.04838">
        <ele>1643.99</ele>
        <time>2017-07-05T10:37:23Z</time>
      </trkpt>
      <trkpt lat="45.27181" lon="6.04845">
        <ele>1648.32</ele>
        <time>2017-07-05T10:37:38Z</time>
      </trkpt>
      <trkpt lat="45.27187" lon="6.04846">
        <ele>1651.68</ele>
        <time>2017-07-05T10:37:44Z</time>
      </trkpt>
      <trkpt lat="45.27202" lon="6.04847">
        <ele>1654.09</ele>
        <time>2017-07-05T10:37:55Z</time>
      </trkpt>
      <trkpt lat="45.27216" lon="6.0485">
        <ele>1655.53</ele>
        <time>2017-07-05T10:38:06Z</time>
      </trkpt>
      <trkpt lat="45.2722" lon="6.0485">
        <ele>1655.53</ele>
        <time>2017-07-05T10:38:09Z</time>
      </trkpt>
      <trkpt lat="45.27228" lon="6.04853">
        <ele>1656.01</ele>
        <time>2017-07-05T10:38:15Z</time>
      </trkpt>
      <trkpt lat="45.27242" lon="6.04857">
        <ele>1658.89</ele>
        <time>2017-07-05T10:38:27Z</time>
      </trkpt>
      <trkpt lat="45.27254" lon="6.04857">
        <ele>1660.81</ele>
        <time>2017-07-05T10:38:37Z</time>
      </trkpt>
      <trkpt lat="45.27271" lon="6.04862">
        <ele>1661.3</ele>
        <time>2017-07-05T10:38:51Z</time>
      </trkpt>
      <trkpt lat="45.27282" lon="6.04867">
        <ele>1662.74</ele>
        <time>2017-07-05T10:39:02Z</time>
      </trkpt>
      <trkpt lat="45.27298" lon="6.04875">
        <ele>1666.1</ele>
        <time>2017-07-05T10:39:18Z</time>
      </trkpt>
      <trkpt lat="45.2731" lon="6.04878">
        <ele>1669.47</ele>
        <time>2017-07-05T10:39:29Z</time>
      </trkpt>
      <trkpt lat="45.27329" lon="6.04872">
        <ele>1669.95</ele>
        <time>2017-07-05T10:39:44Z</time>
      </trkpt>
      <trkpt lat="45.27351" lon="6.04867">
        <ele>1671.87</ele>
        <time>2017-07-05T10:40:00Z</time>
      </trkpt>
      <trkpt lat="45.27367" lon="6.04868">
        <ele>1673.31</ele>
        <time>2017-07-05T10:40:12Z</time>
      </trkpt>
      <trkpt lat="45.27387" lon="6.04873">
        <ele>1675.72</ele>
        <time>2017-07-05T10:40:27Z</time>
      </trkpt>
      <trkpt lat="45.27394" lon="6.04874">
        <ele>1676.68</ele>
        <time>2017-07-05T10:40:33Z</time>
      </trkpt>
      <trkpt lat="45.27403" lon="6.04881">
        <ele>1677.64</ele>
        <time>2017-07-05T10:40:42Z</time>
      </trkpt>
      <trkpt lat="45.27423" lon="6.04877">
        <ele>1680.52</ele>
        <time>2017-07-05T10:40:59Z</time>
      </trkpt>
      <trkpt lat="45.27438" lon="6.0488">
        <ele>1685.81</ele>
        <time>2017-07-05T10:41:13Z</time>
      </trkpt>
      <trkpt lat="45.27454" lon="6.04882">
        <ele>1689.17</ele>
        <time>2017-07-05T10:41:27Z</time>
      </trkpt>
      <trkpt lat="45.27473" lon="6.04882">
        <ele>1690.62</ele>
        <time>2017-07-05T10:41:40Z</time>
      </trkpt>
      <trkpt lat="45.27484" lon="6.04882">
        <ele>1691.58</ele>
        <time>2017-07-05T10:41:49Z</time>
      </trkpt>
      <trkpt lat="45.27502" lon="6.04889">
        <ele>1692.54</ele>
        <time>2017-07-05T10:42:04Z</time>
      </trkpt>
      <trkpt lat="45.27517" lon="6.04893">
        <ele>1695.42</ele>
        <time>2017-07-05T10:42:18Z</time>
      </trkpt>
      <trkpt lat="45.27524" lon="6.04893">
        <ele>1696.38</ele>
        <time>2017-07-05T10:42:24Z</time>
      </trkpt>
      <trkpt lat="45.27532" lon="6.04895">
        <ele>1697.83</ele>
        <time>2017-07-05T10:42:31Z</time>
      </trkpt>
      <trkpt lat="45.27537" lon="6.04895">
        <ele>1698.79</ele>
        <time>2017-07-05T10:42:42Z</time>
      </trkpt>
      <trkpt lat="45.2754" lon="6.04895">
        <ele>1699.75</ele>
        <time>2017-07-05T10:42:45Z</time>
      </trkpt>
      <trkpt lat="45.2756" lon="6.04904">
        <ele>1704.55</ele>
        <time>2017-07-05T10:43:05Z</time>
      </trkpt>
      <trkpt lat="45.27574" lon="6.04912">
        <ele>1705.52</ele>
        <time>2017-07-05T10:43:20Z</time>
      </trkpt>
      <trkpt lat="45.27591" lon="6.04923">
        <ele>1707.44</ele>
        <time>2017-07-05T10:43:39Z</time>
      </trkpt>
      <trkpt lat="45.27603" lon="6.0493">
        <ele>1708.4</ele>
        <time>2017-07-05T10:43:54Z</time>
      </trkpt>
      <trkpt lat="45.27604" lon="6.04931">
        <ele>1708.88</ele>
        <time>2017-07-05T10:44:11Z</time>
      </trkpt>
      <trkpt lat="45.27623" lon="6.04942">
        <ele>1711.28</ele>
        <time>2017-07-05T10:44:28Z</time>
      </trkpt>
      <trkpt lat="45.27631" lon="6.04948">
        <ele>1712.73</ele>
        <time>2017-07-05T10:44:37Z</time>
      </trkpt>
      <trkpt lat="45.2764" lon="6.04956">
        <ele>1714.17</ele>
        <time>2017-07-05T10:44:47Z</time>
      </trkpt>
      <trkpt lat="45.27658" lon="6.04963">
        <ele>1718.01</ele>
        <time>2017-07-05T10:45:05Z</time>
      </trkpt>
      <trkpt lat="45.27678" lon="6.04966">
        <ele>1722.82</ele>
        <time>2017-07-05T10:45:24Z</time>
      </trkpt>
      <trkpt lat="45.27695" lon="6.04969">
        <ele>1728.11</ele>
        <time>2017-07-05T10:45:40Z</time>
      </trkpt>
      <trkpt lat="45.27714" lon="6.04969">
        <ele>1728.59</ele>
        <time>2017-07-05T10:45:55Z</time>
      </trkpt>
      <trkpt lat="45.27733" lon="6.04978">
        <ele>1729.55</ele>
        <time>2017-07-05T10:46:11Z</time>
      </trkpt>
      <trkpt lat="45.27739" lon="6.0498">
        <ele>1729.55</ele>
        <time>2017-07-05T10:46:17Z</time>
      </trkpt>
      <trkpt lat="45.27754" lon="6.04987">
        <ele>1731.95</ele>
        <time>2017-07-05T10:46:31Z</time>
      </trkpt>
      <trkpt lat="45.27754" lon="6.04988">
        <ele>1731.95</ele>
        <time>2017-07-05T10:46:32Z</time>
      </trkpt>
      <trkpt lat="45.27769" lon="6.04996">
        <ele>1734.36</ele>
        <time>2017-07-05T10:46:47Z</time>
      </trkpt>
      <trkpt lat="45.27786" lon="6.05003">
        <ele>1737.72</ele>
        <time>2017-07-05T10:47:05Z</time>
      </trkpt>
      <trkpt lat="45.27786" lon="6.05004">
        <ele>1737.72</ele>
        <time>2017-07-05T10:47:08Z</time>
      </trkpt>
      <trkpt lat="45.27806" lon="6.05013">
        <ele>1739.64</ele>
        <time>2017-07-05T10:47:23Z</time>
      </trkpt>
      <trkpt lat="45.27824" lon="6.05022">
        <ele>1741.08</ele>
        <time>2017-07-05T10:47:38Z</time>
      </trkpt>
      <trkpt lat="45.27844" lon="6.05033">
        <ele>1742.53</ele>
        <time>2017-07-05T10:47:54Z</time>
      </trkpt>
      <trkpt lat="45.27855" lon="6.05036">
        <ele>1743.49</ele>
        <time>2017-07-05T10:48:03Z</time>
      </trkpt>
      <trkpt lat="45.27877" lon="6.05045">
        <ele>1744.93</ele>
        <time>2017-07-05T10:48:20Z</time>
      </trkpt>
      <trkpt lat="45.27901" lon="6.05058">
        <ele>1748.78</ele>
        <time>2017-07-05T10:48:39Z</time>
      </trkpt>
      <trkpt lat="45.27916" lon="6.05066">
        <ele>1753.58</ele>
        <time>2017-07-05T10:48:52Z</time>
      </trkpt>
      <trkpt lat="45.27929" lon="6.05072">
        <ele>1757.91</ele>
        <time>2017-07-05T10:49:05Z</time>
      </trkpt>
      <trkpt lat="45.27946" lon="6.05081">
        <ele>1760.79</ele>
        <time>2017-07-05T10:49:21Z</time>
      </trkpt>
      <trkpt lat="45.27967" lon="6.05089">
        <ele>1761.27</ele>
        <time>2017-07-05T10:49:37Z</time>
      </trkpt>
      <trkpt lat="45.27978" lon="6.05092">
        <ele>1763.68</ele>
        <time>2017-07-05T10:49:49Z</time>
      </trkpt>
      <trkpt lat="45.27992" lon="6.05097">
        <ele>1768.48</ele>
        <time>2017-07-05T10:50:03Z</time>
      </trkpt>
      <trkpt lat="45.27995" lon="6.05095">
        <ele>1769.44</ele>
        <time>2017-07-05T10:50:06Z</time>
      </trkpt>
      <trkpt lat="45.27996" lon="6.05091">
        <ele>1770.41</ele>
        <time>2017-07-05T10:50:09Z</time>
      </trkpt>
      <trkpt lat="45.27996" lon="6.05065">
        <ele>1773.77</ele>
        <time>2017-07-05T10:50:27Z</time>
      </trkpt>
      <trkpt lat="45.27987" lon="6.05043">
        <ele>1772.33</ele>
        <time>2017-07-05T10:50:43Z</time>
      </trkpt>
      <trkpt lat="45.27974" lon="6.0502">
        <ele>1772.81</ele>
        <time>2017-07-05T10:51:02Z</time>
      </trkpt>
      <trkpt lat="45.27969" lon="6.05014">
        <ele>1772.33</ele>
        <time>2017-07-05T10:51:17Z</time>
      </trkpt>
      <trkpt lat="45.27952" lon="6.04993">
        <ele>1773.29</ele>
        <time>2017-07-05T10:51:33Z</time>
      </trkpt>
      <trkpt lat="45.27935" lon="6.04965">
        <ele>1773.77</ele>
        <time>2017-07-05T10:51:49Z</time>
      </trkpt>
      <trkpt lat="45.27926" lon="6.04931">
        <ele>1775.69</ele>
        <time>2017-07-05T10:52:04Z</time>
      </trkpt>
      <trkpt lat="45.27923" lon="6.04885">
        <ele>1778.58</ele>
        <time>2017-07-05T10:52:23Z</time>
      </trkpt>
      <trkpt lat="45.27918" lon="6.04863">
        <ele>1778.58</ele>
        <time>2017-07-05T10:52:34Z</time>
      </trkpt>
      <trkpt lat="45.27905" lon="6.0484">
        <ele>1780.98</ele>
        <time>2017-07-05T10:52:46Z</time>
      </trkpt>
      <trkpt lat="45.27885" lon="6.04813">
        <ele>1784.34</ele>
        <time>2017-07-05T10:53:03Z</time>
      </trkpt>
      <trkpt lat="45.27869" lon="6.04786">
        <ele>1785.31</ele>
        <time>2017-07-05T10:53:19Z</time>
      </trkpt>
      <trkpt lat="45.27849" lon="6.0476">
        <ele>1787.23</ele>
        <time>2017-07-05T10:53:36Z</time>
      </trkpt>
      <trkpt lat="45.27834" lon="6.04731">
        <ele>1789.15</ele>
        <time>2017-07-05T10:53:52Z</time>
      </trkpt>
      <trkpt lat="45.27814" lon="6.04704">
        <ele>1791.07</ele>
        <time>2017-07-05T10:54:08Z</time>
      </trkpt>
      <trkpt lat="45.27791" lon="6.04679">
        <ele>1793</ele>
        <time>2017-07-05T10:54:22Z</time>
      </trkpt>
      <trkpt lat="45.27768" lon="6.04657">
        <ele>1795.88</ele>
        <time>2017-07-05T10:54:36Z</time>
      </trkpt>
      <trkpt lat="45.27743" lon="6.0463">
        <ele>1797.32</ele>
        <time>2017-07-05T10:54:51Z</time>
      </trkpt>
      <trkpt lat="45.2771" lon="6.04603">
        <ele>1798.28</ele>
        <time>2017-07-05T10:55:08Z</time>
      </trkpt>
      <trkpt lat="45.2768" lon="6.04575">
        <ele>1799.24</ele>
        <time>2017-07-05T10:55:23Z</time>
      </trkpt>
      <trkpt lat="45.27667" lon="6.04559">
        <ele>1799.24</ele>
        <time>2017-07-05T10:55:30Z</time>
      </trkpt>
      <trkpt lat="45.27663" lon="6.04553">
        <ele>1799.24</ele>
        <time>2017-07-05T10:55:34Z</time>
      </trkpt>
      <trkpt lat="45.27657" lon="6.04532">
        <ele>1799.24</ele>
        <time>2017-07-05T10:55:42Z</time>
      </trkpt>
      <trkpt lat="45.27665" lon="6.04552">
        <ele>1800.21</ele>
        <time>2017-07-05T10:55:51Z</time>
      </trkpt>
      <trkpt lat="45.27676" lon="6.04559">
        <ele>1802.13</ele>
        <time>2017-07-05T10:55:58Z</time>
      </trkpt>
      <trkpt lat="45.27699" lon="6.04573">
        <ele>1802.61</ele>
        <time>2017-07-05T10:56:13Z</time>
      </trkpt>
      <trkpt lat="45.27727" lon="6.04583">
        <ele>1802.13</ele>
        <time>2017-07-05T10:56:27Z</time>
      </trkpt>
      <trkpt lat="45.27752" lon="6.04595">
        <ele>1801.17</ele>
        <time>2017-07-05T10:56:40Z</time>
      </trkpt>
      <trkpt lat="45.27775" lon="6.04601">
        <ele>1801.65</ele>
        <time>2017-07-05T10:56:54Z</time>
      </trkpt>
      <trkpt lat="45.27792" lon="6.04608">
        <ele>1805.01</ele>
        <time>2017-07-05T10:57:07Z</time>
      </trkpt>
      <trkpt lat="45.27815" lon="6.04618">
        <ele>1806.45</ele>
        <time>2017-07-05T10:57:23Z</time>
      </trkpt>
      <trkpt lat="45.27838" lon="6.0463">
        <ele>1807.9</ele>
        <time>2017-07-05T10:57:38Z</time>
      </trkpt>
      <trkpt lat="45.27859" lon="6.04641">
        <ele>1809.82</ele>
        <time>2017-07-05T10:57:53Z</time>
      </trkpt>
      <trkpt lat="45.27885" lon="6.04645">
        <ele>1811.26</ele>
        <time>2017-07-05T10:58:10Z</time>
      </trkpt>
      <trkpt lat="45.27897" lon="6.04624">
        <ele>1811.74</ele>
        <time>2017-07-05T10:58:25Z</time>
      </trkpt>
      <trkpt lat="45.27905" lon="6.04599">
        <ele>1811.74</ele>
        <time>2017-07-05T10:58:38Z</time>
      </trkpt>
      <trkpt lat="45.27912" lon="6.04588">
        <ele>1811.74</ele>
        <time>2017-07-05T10:58:48Z</time>
      </trkpt>
      <trkpt lat="45.27912" lon="6.04586">
        <ele>1810.3</ele>
        <time>2017-07-05T10:59:01Z</time>
      </trkpt>
      <trkpt lat="45.27912" lon="6.04586">
        <ele>1809.82</ele>
        <time>2017-07-05T10:59:04Z</time>
      </trkpt>
      <trkpt lat="45.27915" lon="6.04566">
        <ele>1811.74</ele>
        <time>2017-07-05T10:59:14Z</time>
      </trkpt>
      <trkpt lat="45.27928" lon="6.04537">
        <ele>1814.15</ele>
        <time>2017-07-05T10:59:30Z</time>
      </trkpt>
      <trkpt lat="45.27943" lon="6.04499">
        <ele>1815.59</ele>
        <time>2017-07-05T10:59:48Z</time>
      </trkpt>
      <trkpt lat="45.27945" lon="6.0446">
        <ele>1818.47</ele>
        <time>2017-07-05T11:00:06Z</time>
      </trkpt>
      <trkpt lat="45.27938" lon="6.04422">
        <ele>1819.43</ele>
        <time>2017-07-05T11:00:23Z</time>
      </trkpt>
      <trkpt lat="45.27936" lon="6.04416">
        <ele>1819.91</ele>
        <time>2017-07-05T11:00:26Z</time>
      </trkpt>
      <trkpt lat="45.27945" lon="6.04412">
        <ele>1820.39</ele>
        <time>2017-07-05T11:00:33Z</time>
      </trkpt>
      <trkpt lat="45.27968" lon="6.04427">
        <ele>1818.47</ele>
        <time>2017-07-05T11:00:44Z</time>
      </trkpt>
      <trkpt lat="45.2798" lon="6.04393">
        <ele>1819.91</ele>
        <time>2017-07-05T11:01:01Z</time>
      </trkpt>
      <trkpt lat="45.2798" lon="6.04374">
        <ele>1821.35</ele>
        <time>2017-07-05T11:01:09Z</time>
      </trkpt>
      <trkpt lat="45.27992" lon="6.04347">
        <ele>1820.39</ele>
        <time>2017-07-05T11:01:20Z</time>
      </trkpt>
      <trkpt lat="45.27993" lon="6.04344">
        <ele>1820.87</ele>
        <time>2017-07-05T11:01:21Z</time>
      </trkpt>
      <trkpt lat="45.27997" lon="6.04301">
        <ele>1821.84</ele>
        <time>2017-07-05T11:01:38Z</time>
      </trkpt>
      <trkpt lat="45.28" lon="6.0428">
        <ele>1820.39</ele>
        <time>2017-07-05T11:01:43Z</time>
      </trkpt>
      <trkpt lat="45.27998" lon="6.04216">
        <ele>1818.95</ele>
        <time>2017-07-05T11:01:56Z</time>
      </trkpt>
      <trkpt lat="45.27998" lon="6.04172">
        <ele>1818.47</ele>
        <time>2017-07-05T11:02:08Z</time>
      </trkpt>
      <trkpt lat="45.28" lon="6.04164">
        <ele>1818.95</ele>
        <time>2017-07-05T11:02:11Z</time>
      </trkpt>
      <trkpt lat="45.28002" lon="6.04149">
        <ele>1819.91</ele>
        <time>2017-07-05T11:02:16Z</time>
      </trkpt>
      <trkpt lat="45.28012" lon="6.04119">
        <ele>1820.87</ele>
        <time>2017-07-05T11:02:27Z</time>
      </trkpt>
      <trkpt lat="45.28015" lon="6.04107">
        <ele>1819.43</ele>
        <time>2017-07-05T11:02:32Z</time>
      </trkpt>
      <trkpt lat="45.28023" lon="6.0408">
        <ele>1815.59</ele>
        <time>2017-07-05T11:02:42Z</time>
      </trkpt>
      <trkpt lat="45.28023" lon="6.04073">
        <ele>1814.15</ele>
        <time>2017-07-05T11:02:52Z</time>
      </trkpt>
      <trkpt lat="45.28023" lon="6.04073">
        <ele>1814.15</ele>
        <time>2017-07-05T11:03:05Z</time>
      </trkpt>
      <trkpt lat="45.28016" lon="6.04056">
        <ele>1812.7</ele>
        <time>2017-07-05T11:03:11Z</time>
      </trkpt>
      <trkpt lat="45.28008" lon="6.04008">
        <ele>1809.34</ele>
        <time>2017-07-05T11:03:18Z</time>
      </trkpt>
      <trkpt lat="45.28013" lon="6.04">
        <ele>1809.34</ele>
        <time>2017-07-05T11:03:20Z</time>
      </trkpt>
      <trkpt lat="45.28017" lon="6.03997">
        <ele>1809.82</ele>
        <time>2017-07-05T11:03:22Z</time>
      </trkpt>
      <trkpt lat="45.28018" lon="6.03993">
        <ele>1810.3</ele>
        <time>2017-07-05T11:03:24Z</time>
      </trkpt>
      <trkpt lat="45.2802" lon="6.03988">
        <ele>1810.78</ele>
        <time>2017-07-05T11:03:35Z</time>
      </trkpt>
      <trkpt lat="45.2802" lon="6.03986">
        <ele>1810.78</ele>
        <time>2017-07-05T11:03:49Z</time>
      </trkpt>
      <trkpt lat="45.28026" lon="6.0398">
        <ele>1809.82</ele>
        <time>2017-07-05T11:03:53Z</time>
      </trkpt>
      <trkpt lat="45.28061" lon="6.03988">
        <ele>1808.38</ele>
        <time>2017-07-05T11:04:03Z</time>
      </trkpt>
      <trkpt lat="45.28076" lon="6.03998">
        <ele>1807.42</ele>
        <time>2017-07-05T11:04:07Z</time>
      </trkpt>
      <trkpt lat="45.28095" lon="6.0401">
        <ele>1806.94</ele>
        <time>2017-07-05T11:04:12Z</time>
      </trkpt>
      <trkpt lat="45.28135" lon="6.04061">
        <ele>1807.42</ele>
        <time>2017-07-05T11:04:27Z</time>
      </trkpt>
      <trkpt lat="45.28154" lon="6.04076">
        <ele>1807.42</ele>
        <time>2017-07-05T11:04:33Z</time>
      </trkpt>
      <trkpt lat="45.28183" lon="6.04082">
        <ele>1807.9</ele>
        <time>2017-07-05T11:04:45Z</time>
      </trkpt>
      <trkpt lat="45.28183" lon="6.04083">
        <ele>1807.42</ele>
        <time>2017-07-05T11:05:03Z</time>
      </trkpt>
      <trkpt lat="45.28183" lon="6.04083">
        <ele>1806.94</ele>
        <time>2017-07-05T11:05:38Z</time>
      </trkpt>
      <trkpt lat="45.28183" lon="6.04084">
        <ele>1806.94</ele>
        <time>2017-07-05T11:05:50Z</time>
      </trkpt>
      <trkpt lat="45.2818" lon="6.04095">
        <ele>1806.94</ele>
        <time>2017-07-05T11:06:03Z</time>
      </trkpt>
      <trkpt lat="45.28182" lon="6.04095">
        <ele>1805.97</ele>
        <time>2017-07-05T11:06:40Z</time>
      </trkpt>
      <trkpt lat="45.28182" lon="6.04094">
        <ele>1805.97</ele>
        <time>2017-07-05T11:06:45Z</time>
      </trkpt>
      <trkpt lat="45.28187" lon="6.04089">
        <ele>1805.49</ele>
        <time>2017-07-05T11:06:49Z</time>
      </trkpt>
      <trkpt lat="45.2822" lon="6.04088">
        <ele>1802.61</ele>
        <time>2017-07-05T11:07:01Z</time>
      </trkpt>
      <trkpt lat="45.28234" lon="6.04089">
        <ele>1801.65</ele>
        <time>2017-07-05T11:07:04Z</time>
      </trkpt>
      <trkpt lat="45.28248" lon="6.04089">
        <ele>1800.21</ele>
        <time>2017-07-05T11:07:07Z</time>
      </trkpt>
      <trkpt lat="45.28274" lon="6.04088">
        <ele>1799.24</ele>
        <time>2017-07-05T11:07:15Z</time>
      </trkpt>
      <trkpt lat="45.28276" lon="6.04089">
        <ele>1798.76</ele>
        <time>2017-07-05T11:07:24Z</time>
      </trkpt>
      <trkpt lat="45.28278" lon="6.04091">
        <ele>1798.28</ele>
        <time>2017-07-05T11:07:36Z</time>
      </trkpt>
      <trkpt lat="45.28278" lon="6.0409">
        <ele>1798.76</ele>
        <time>2017-07-05T11:07:52Z</time>
      </trkpt>
      <trkpt lat="45.28278" lon="6.04093">
        <ele>1798.76</ele>
        <time>2017-07-05T11:08:00Z</time>
      </trkpt>
      <trkpt lat="45.28303" lon="6.0411">
        <ele>1797.32</ele>
        <time>2017-07-05T11:08:12Z</time>
      </trkpt>
      <trkpt lat="45.28311" lon="6.04115">
        <ele>1796.84</ele>
        <time>2017-07-05T11:08:21Z</time>
      </trkpt>
      <trkpt lat="45.28312" lon="6.04118">
        <ele>1796.84</ele>
        <time>2017-07-05T11:08:26Z</time>
      </trkpt>
      <trkpt lat="45.28322" lon="6.04151">
        <ele>1790.59</ele>
        <time>2017-07-05T11:08:35Z</time>
      </trkpt>
      <trkpt lat="45.28341" lon="6.04165">
        <ele>1789.15</ele>
        <time>2017-07-05T11:08:41Z</time>
      </trkpt>
      <trkpt lat="45.2835" lon="6.04167">
        <ele>1787.71</ele>
        <time>2017-07-05T11:08:43Z</time>
      </trkpt>
      <trkpt lat="45.28412" lon="6.04182">
        <ele>1781.46</ele>
        <time>2017-07-05T11:08:54Z</time>
      </trkpt>
      <trkpt lat="45.2845" lon="6.04186">
        <ele>1778.1</ele>
        <time>2017-07-05T11:09:00Z</time>
      </trkpt>
      <trkpt lat="45.285" lon="6.04204">
        <ele>1775.69</ele>
        <time>2017-07-05T11:09:10Z</time>
      </trkpt>
      <trkpt lat="45.28519" lon="6.04231">
        <ele>1772.81</ele>
        <time>2017-07-05T11:09:18Z</time>
      </trkpt>
      <trkpt lat="45.28541" lon="6.04254">
        <ele>1770.41</ele>
        <time>2017-07-05T11:09:24Z</time>
      </trkpt>
      <trkpt lat="45.28567" lon="6.04296">
        <ele>1764.64</ele>
        <time>2017-07-05T11:09:34Z</time>
      </trkpt>
      <trkpt lat="45.28571" lon="6.04301">
        <ele>1763.2</ele>
        <time>2017-07-05T11:09:41Z</time>
      </trkpt>
      <trkpt lat="45.28582" lon="6.04316">
        <ele>1761.27</ele>
        <time>2017-07-05T11:09:53Z</time>
      </trkpt>
      <trkpt lat="45.28603" lon="6.04349">
        <ele>1756.47</ele>
        <time>2017-07-05T11:10:03Z</time>
      </trkpt>
      <trkpt lat="45.28606" lon="6.04353">
        <ele>1755.5</ele>
        <time>2017-07-05T11:10:04Z</time>
      </trkpt>
      <trkpt lat="45.28616" lon="6.04365">
        <ele>1754.06</ele>
        <time>2017-07-05T11:10:07Z</time>
      </trkpt>
      <trkpt lat="45.28624" lon="6.04379">
        <ele>1752.14</ele>
        <time>2017-07-05T11:10:10Z</time>
      </trkpt>
      <trkpt lat="45.28648" lon="6.04402">
        <ele>1749.26</ele>
        <time>2017-07-05T11:10:17Z</time>
      </trkpt>
      <trkpt lat="45.28675" lon="6.04417">
        <ele>1746.37</ele>
        <time>2017-07-05T11:10:24Z</time>
      </trkpt>
      <trkpt lat="45.2869" lon="6.04428">
        <ele>1743.97</ele>
        <time>2017-07-05T11:10:28Z</time>
      </trkpt>
      <trkpt lat="45.28699" lon="6.04438">
        <ele>1743.97</ele>
        <time>2017-07-05T11:10:31Z</time>
      </trkpt>
      <trkpt lat="45.28712" lon="6.04461">
        <ele>1743.97</ele>
        <time>2017-07-05T11:10:41Z</time>
      </trkpt>
      <trkpt lat="45.2874" lon="6.04465">
        <ele>1742.53</ele>
        <time>2017-07-05T11:10:52Z</time>
      </trkpt>
      <trkpt lat="45.28771" lon="6.04489">
        <ele>1735.32</ele>
        <time>2017-07-05T11:11:05Z</time>
      </trkpt>
      <trkpt lat="45.28779" lon="6.045">
        <ele>1733.88</ele>
        <time>2017-07-05T11:11:08Z</time>
      </trkpt>
      <trkpt lat="45.28788" lon="6.04524">
        <ele>1727.63</ele>
        <time>2017-07-05T11:11:17Z</time>
      </trkpt>
      <trkpt lat="45.28792" lon="6.04543">
        <ele>1722.34</ele>
        <time>2017-07-05T11:11:22Z</time>
      </trkpt>
      <trkpt lat="45.28798" lon="6.04557">
        <ele>1718.97</ele>
        <time>2017-07-05T11:11:26Z</time>
      </trkpt>
      <trkpt lat="45.28806" lon="6.04565">
        <ele>1718.01</ele>
        <time>2017-07-05T11:11:31Z</time>
      </trkpt>
      <trkpt lat="45.2881" lon="6.04575">
        <ele>1716.09</ele>
        <time>2017-07-05T11:11:35Z</time>
      </trkpt>
      <trkpt lat="45.28816" lon="6.04585">
        <ele>1713.69</ele>
        <time>2017-07-05T11:11:39Z</time>
      </trkpt>
      <trkpt lat="45.28814" lon="6.04593">
        <ele>1712.25</ele>
        <time>2017-07-05T11:11:41Z</time>
      </trkpt>
      <trkpt lat="45.28821" lon="6.04615">
        <ele>1708.88</ele>
        <time>2017-07-05T11:11:48Z</time>
      </trkpt>
      <trkpt lat="45.28834" lon="6.0463">
        <ele>1705.04</ele>
        <time>2017-07-05T11:11:52Z</time>
      </trkpt>
      <trkpt lat="45.28848" lon="6.04661">
        <ele>1698.31</ele>
        <time>2017-07-05T11:11:59Z</time>
      </trkpt>
      <trkpt lat="45.28866" lon="6.04697">
        <ele>1689.65</ele>
        <time>2017-07-05T11:12:09Z</time>
      </trkpt>
      <trkpt lat="45.28866" lon="6.04702">
        <ele>1689.17</ele>
        <time>2017-07-05T11:12:10Z</time>
      </trkpt>
      <trkpt lat="45.28859" lon="6.04713">
        <ele>1684.85</ele>
        <time>2017-07-05T11:12:16Z</time>
      </trkpt>
      <trkpt lat="45.28855" lon="6.04715">
        <ele>1681.48</ele>
        <time>2017-07-05T11:12:21Z</time>
      </trkpt>
      <trkpt lat="45.28862" lon="6.04723">
        <ele>1678.6</ele>
        <time>2017-07-05T11:12:28Z</time>
      </trkpt>
      <trkpt lat="45.28865" lon="6.04741">
        <ele>1674.27</ele>
        <time>2017-07-05T11:12:36Z</time>
      </trkpt>
      <trkpt lat="45.28852" lon="6.04744">
        <ele>1667.54</ele>
        <time>2017-07-05T11:12:45Z</time>
      </trkpt>
      <trkpt lat="45.28845" lon="6.04748">
        <ele>1665.14</ele>
        <time>2017-07-05T11:12:49Z</time>
      </trkpt>
      <trkpt lat="45.28835" lon="6.04775">
        <ele>1661.78</ele>
        <time>2017-07-05T11:12:57Z</time>
      </trkpt>
      <trkpt lat="45.28824" lon="6.04793">
        <ele>1660.33</ele>
        <time>2017-07-05T11:13:03Z</time>
      </trkpt>
      <trkpt lat="45.28823" lon="6.04813">
        <ele>1656.97</ele>
        <time>2017-07-05T11:13:09Z</time>
      </trkpt>
      <trkpt lat="45.28831" lon="6.04852">
        <ele>1647.84</ele>
        <time>2017-07-05T11:13:18Z</time>
      </trkpt>
      <trkpt lat="45.28831" lon="6.04856">
        <ele>1646.88</ele>
        <time>2017-07-05T11:13:19Z</time>
      </trkpt>
      <trkpt lat="45.28831" lon="6.04873">
        <ele>1643.51</ele>
        <time>2017-07-05T11:13:24Z</time>
      </trkpt>
      <trkpt lat="45.28824" lon="6.04896">
        <ele>1634.38</ele>
        <time>2017-07-05T11:13:33Z</time>
      </trkpt>
      <trkpt lat="45.28819" lon="6.04912">
        <ele>1630.05</ele>
        <time>2017-07-05T11:13:39Z</time>
      </trkpt>
      <trkpt lat="45.28811" lon="6.04919">
        <ele>1626.21</ele>
        <time>2017-07-05T11:13:43Z</time>
      </trkpt>
      <trkpt lat="45.28798" lon="6.04931">
        <ele>1618.52</ele>
        <time>2017-07-05T11:13:52Z</time>
      </trkpt>
      <trkpt lat="45.2879" lon="6.04951">
        <ele>1611.31</ele>
        <time>2017-07-05T11:13:58Z</time>
      </trkpt>
      <trkpt lat="45.28794" lon="6.04996">
        <ele>1603.14</ele>
        <time>2017-07-05T11:14:05Z</time>
      </trkpt>
      <trkpt lat="45.28793" lon="6.05005">
        <ele>1602.17</ele>
        <time>2017-07-05T11:14:15Z</time>
      </trkpt>
      <trkpt lat="45.28791" lon="6.05021">
        <ele>1599.77</ele>
        <time>2017-07-05T11:14:28Z</time>
      </trkpt>
      <trkpt lat="45.2879" lon="6.05033">
        <ele>1596.41</ele>
        <time>2017-07-05T11:14:31Z</time>
      </trkpt>
      <trkpt lat="45.28784" lon="6.05055">
        <ele>1592.08</ele>
        <time>2017-07-05T11:14:35Z</time>
      </trkpt>
      <trkpt lat="45.28782" lon="6.05105">
        <ele>1581.99</ele>
        <time>2017-07-05T11:14:43Z</time>
      </trkpt>
      <trkpt lat="45.28785" lon="6.05126">
        <ele>1579.58</ele>
        <time>2017-07-05T11:14:48Z</time>
      </trkpt>
      <trkpt lat="45.28793" lon="6.05142">
        <ele>1577.66</ele>
        <time>2017-07-05T11:14:54Z</time>
      </trkpt>
      <trkpt lat="45.28795" lon="6.05163">
        <ele>1576.22</ele>
        <time>2017-07-05T11:14:58Z</time>
      </trkpt>
      <trkpt lat="45.28804" lon="6.05179">
        <ele>1571.89</ele>
        <time>2017-07-05T11:15:02Z</time>
      </trkpt>
      <trkpt lat="45.2883" lon="6.05197">
        <ele>1564.68</ele>
        <time>2017-07-05T11:15:12Z</time>
      </trkpt>
      <trkpt lat="45.28847" lon="6.05229">
        <ele>1555.55</ele>
        <time>2017-07-05T11:15:23Z</time>
      </trkpt>
      <trkpt lat="45.28861" lon="6.05261">
        <ele>1547.38</ele>
        <time>2017-07-05T11:15:33Z</time>
      </trkpt>
      <trkpt lat="45.28869" lon="6.05278">
        <ele>1539.69</ele>
        <time>2017-07-05T11:15:41Z</time>
      </trkpt>
      <trkpt lat="45.28889" lon="6.05299">
        <ele>1534.88</ele>
        <time>2017-07-05T11:15:49Z</time>
      </trkpt>
      <trkpt lat="45.28902" lon="6.05333">
        <ele>1532.96</ele>
        <time>2017-07-05T11:15:59Z</time>
      </trkpt>
      <trkpt lat="45.28907" lon="6.05343">
        <ele>1530.56</ele>
        <time>2017-07-05T11:16:09Z</time>
      </trkpt>
      <trkpt lat="45.28908" lon="6.05347">
        <ele>1527.19</ele>
        <time>2017-07-05T11:16:19Z</time>
      </trkpt>
      <trkpt lat="45.28911" lon="6.05352">
        <ele>1525.75</ele>
        <time>2017-07-05T11:16:30Z</time>
      </trkpt>
      <trkpt lat="45.28913" lon="6.05354">
        <ele>1525.75</ele>
        <time>2017-07-05T11:16:37Z</time>
      </trkpt>
      <trkpt lat="45.28912" lon="6.05361">
        <ele>1523.35</ele>
        <time>2017-07-05T11:16:45Z</time>
      </trkpt>
      <trkpt lat="45.28918" lon="6.05384">
        <ele>1516.62</ele>
        <time>2017-07-05T11:16:54Z</time>
      </trkpt>
      <trkpt lat="45.28921" lon="6.05383">
        <ele>1514.21</ele>
        <time>2017-07-05T11:17:04Z</time>
      </trkpt>
      <trkpt lat="45.28921" lon="6.05382">
        <ele>1514.21</ele>
        <time>2017-07-05T11:17:15Z</time>
      </trkpt>
      <trkpt lat="45.28922" lon="6.05409">
        <ele>1511.33</ele>
        <time>2017-07-05T11:17:27Z</time>
      </trkpt>
      <trkpt lat="45.28934" lon="6.05432">
        <ele>1505.56</ele>
        <time>2017-07-05T11:17:33Z</time>
      </trkpt>
      <trkpt lat="45.28948" lon="6.05446">
        <ele>1504.12</ele>
        <time>2017-07-05T11:17:37Z</time>
      </trkpt>
      <trkpt lat="45.28966" lon="6.05468">
        <ele>1501.24</ele>
        <time>2017-07-05T11:17:46Z</time>
      </trkpt>
      <trkpt lat="45.28968" lon="6.0547">
        <ele>1500.27</ele>
        <time>2017-07-05T11:18:01Z</time>
      </trkpt>
      <trkpt lat="45.28969" lon="6.0547">
        <ele>1500.27</ele>
        <time>2017-07-05T11:18:06Z</time>
      </trkpt>
      <trkpt lat="45.28977" lon="6.05467">
        <ele>1499.79</ele>
        <time>2017-07-05T11:18:16Z</time>
      </trkpt>
      <trkpt lat="45.28978" lon="6.05468">
        <ele>1499.79</ele>
        <time>2017-07-05T11:18:18Z</time>
      </trkpt>
      <trkpt lat="45.29" lon="6.05491">
        <ele>1497.87</ele>
        <time>2017-07-05T11:18:29Z</time>
      </trkpt>
      <trkpt lat="45.29021" lon="6.05513">
        <ele>1502.2</ele>
        <time>2017-07-05T11:18:40Z</time>
      </trkpt>
      <trkpt lat="45.29032" lon="6.05522">
        <ele>1505.56</ele>
        <time>2017-07-05T11:18:45Z</time>
      </trkpt>
      <trkpt lat="45.2905" lon="6.05543">
        <ele>1505.08</ele>
        <time>2017-07-05T11:18:52Z</time>
      </trkpt>
      <trkpt lat="45.29067" lon="6.05567">
        <ele>1504.6</ele>
        <time>2017-07-05T11:18:58Z</time>
      </trkpt>
      <trkpt lat="45.29079" lon="6.05591">
        <ele>1502.68</ele>
        <time>2017-07-05T11:19:05Z</time>
      </trkpt>
      <trkpt lat="45.291" lon="6.05612">
        <ele>1501.72</ele>
        <time>2017-07-05T11:19:12Z</time>
      </trkpt>
      <trkpt lat="45.29108" lon="6.05632">
        <ele>1500.27</ele>
        <time>2017-07-05T11:19:16Z</time>
      </trkpt>
      <trkpt lat="45.29107" lon="6.05652">
        <ele>1498.35</ele>
        <time>2017-07-05T11:19:21Z</time>
      </trkpt>
      <trkpt lat="45.2909" lon="6.05694">
        <ele>1494.99</ele>
        <time>2017-07-05T11:19:31Z</time>
      </trkpt>
      <trkpt lat="45.29081" lon="6.05699">
        <ele>1494.51</ele>
        <time>2017-07-05T11:19:33Z</time>
      </trkpt>
      <trkpt lat="45.29065" lon="6.05737">
        <ele>1490.18</ele>
        <time>2017-07-05T11:19:42Z</time>
      </trkpt>
      <trkpt lat="45.29063" lon="6.05739">
        <ele>1489.7</ele>
        <time>2017-07-05T11:19:44Z</time>
      </trkpt>
      <trkpt lat="45.2905" lon="6.0574">
        <ele>1486.82</ele>
        <time>2017-07-05T11:19:51Z</time>
      </trkpt>
      <trkpt lat="45.2904" lon="6.05733">
        <ele>1486.34</ele>
        <time>2017-07-05T11:19:56Z</time>
      </trkpt>
      <trkpt lat="45.2901" lon="6.05728">
        <ele>1484.41</ele>
        <time>2017-07-05T11:20:04Z</time>
      </trkpt>
      <trkpt lat="45.29003" lon="6.05736">
        <ele>1482.01</ele>
        <time>2017-07-05T11:20:08Z</time>
      </trkpt>
      <trkpt lat="45.28998" lon="6.05736">
        <ele>1479.13</ele>
        <time>2017-07-05T11:20:11Z</time>
      </trkpt>
      <trkpt lat="45.28993" lon="6.05732">
        <ele>1477.2</ele>
        <time>2017-07-05T11:20:14Z</time>
      </trkpt>
      <trkpt lat="45.28978" lon="6.05738">
        <ele>1470.95</ele>
        <time>2017-07-05T11:20:23Z</time>
      </trkpt>
      <trkpt lat="45.28961" lon="6.05736">
        <ele>1467.11</ele>
        <time>2017-07-05T11:20:30Z</time>
      </trkpt>
      <trkpt lat="45.28959" lon="6.05752">
        <ele>1461.82</ele>
        <time>2017-07-05T11:20:36Z</time>
      </trkpt>
      <trkpt lat="45.28955" lon="6.05765">
        <ele>1458.94</ele>
        <time>2017-07-05T11:20:41Z</time>
      </trkpt>
      <trkpt lat="45.28955" lon="6.05773">
        <ele>1454.13</ele>
        <time>2017-07-05T11:20:53Z</time>
      </trkpt>
      <trkpt lat="45.28955" lon="6.05778">
        <ele>1450.29</ele>
        <time>2017-07-05T11:21:14Z</time>
      </trkpt>
      <trkpt lat="45.28954" lon="6.05786">
        <ele>1446.44</ele>
        <time>2017-07-05T11:21:27Z</time>
      </trkpt>
      <trkpt lat="45.2895" lon="6.05802">
        <ele>1440.19</ele>
        <time>2017-07-05T11:21:40Z</time>
      </trkpt>
      <trkpt lat="45.28947" lon="6.05818">
        <ele>1438.27</ele>
        <time>2017-07-05T11:21:43Z</time>
      </trkpt>
      <trkpt lat="45.28945" lon="6.05835">
        <ele>1431.54</ele>
        <time>2017-07-05T11:21:51Z</time>
      </trkpt>
      <trkpt lat="45.28925" lon="6.05855">
        <ele>1430.58</ele>
        <time>2017-07-05T11:22:00Z</time>
      </trkpt>
      <trkpt lat="45.28922" lon="6.05856">
        <ele>1430.58</ele>
        <time>2017-07-05T11:22:01Z</time>
      </trkpt>
      <trkpt lat="45.28911" lon="6.05863">
        <ele>1430.1</ele>
        <time>2017-07-05T11:22:05Z</time>
      </trkpt>
      <trkpt lat="45.28919" lon="6.05878">
        <ele>1419.52</ele>
        <time>2017-07-05T11:22:11Z</time>
      </trkpt>
      <trkpt lat="45.28913" lon="6.05884">
        <ele>1407.03</ele>
        <time>2017-07-05T11:22:18Z</time>
      </trkpt>
      <trkpt lat="45.28923" lon="6.05894">
        <ele>1400.3</ele>
        <time>2017-07-05T11:22:23Z</time>
      </trkpt>
      <trkpt lat="45.28928" lon="6.05898">
        <ele>1398.86</ele>
        <time>2017-07-05T11:22:25Z</time>
      </trkpt>
      <trkpt lat="45.28926" lon="6.05915">
        <ele>1395.01</ele>
        <time>2017-07-05T11:22:29Z</time>
      </trkpt>
      <trkpt lat="45.28926" lon="6.05921">
        <ele>1394.05</ele>
        <time>2017-07-05T11:22:31Z</time>
      </trkpt>
      <trkpt lat="45.28929" lon="6.05926">
        <ele>1391.65</ele>
        <time>2017-07-05T11:22:37Z</time>
      </trkpt>
      <trkpt lat="45.28924" lon="6.05935">
        <ele>1391.17</ele>
        <time>2017-07-05T11:22:41Z</time>
      </trkpt>
      <trkpt lat="45.28919" lon="6.05948">
        <ele>1386.36</ele>
        <time>2017-07-05T11:22:54Z</time>
      </trkpt>
      <trkpt lat="45.28925" lon="6.05964">
        <ele>1370.02</ele>
        <time>2017-07-05T11:23:30Z</time>
      </trkpt>
      <trkpt lat="45.28925" lon="6.05965">
        <ele>1364.73</ele>
        <time>2017-07-05T11:24:02Z</time>
      </trkpt>
      <trkpt lat="45.28925" lon="6.05965">
        <ele>1364.73</ele>
        <time>2017-07-05T11:24:03Z</time>
      </trkpt>
      <trkpt lat="45.28921" lon="6.05993">
        <ele>1363.29</ele>
        <time>2017-07-05T11:24:13Z</time>
      </trkpt>
      <trkpt lat="45.28918" lon="6.06019">
        <ele>1362.81</ele>
        <time>2017-07-05T11:24:19Z</time>
      </trkpt>
      <trkpt lat="45.28917" lon="6.06033">
        <ele>1360.88</ele>
        <time>2017-07-05T11:24:24Z</time>
      </trkpt>
      <trkpt lat="45.2891" lon="6.06048">
        <ele>1359.92</ele>
        <time>2017-07-05T11:24:29Z</time>
      </trkpt>
      <trkpt lat="45.28905" lon="6.06077">
        <ele>1356.08</ele>
        <time>2017-07-05T11:24:38Z</time>
      </trkpt>
      <trkpt lat="45.28906" lon="6.06079">
        <ele>1355.6</ele>
        <time>2017-07-05T11:24:39Z</time>
      </trkpt>
      <trkpt lat="45.28907" lon="6.06092">
        <ele>1354.15</ele>
        <time>2017-07-05T11:24:46Z</time>
      </trkpt>
      <trkpt lat="45.28908" lon="6.0611">
        <ele>1353.19</ele>
        <time>2017-07-05T11:24:51Z</time>
      </trkpt>
      <trkpt lat="45.2892" lon="6.06136">
        <ele>1352.71</ele>
        <time>2017-07-05T11:25:00Z</time>
      </trkpt>
      <trkpt lat="45.28924" lon="6.06141">
        <ele>1352.23</ele>
        <time>2017-07-05T11:25:02Z</time>
      </trkpt>
      <trkpt lat="45.28938" lon="6.06147">
        <ele>1349.35</ele>
        <time>2017-07-05T11:25:11Z</time>
      </trkpt>
      <trkpt lat="45.28942" lon="6.06155">
        <ele>1348.39</ele>
        <time>2017-07-05T11:25:15Z</time>
      </trkpt>
      <trkpt lat="45.28937" lon="6.06167">
        <ele>1347.91</ele>
        <time>2017-07-05T11:25:21Z</time>
      </trkpt>
      <trkpt lat="45.28942" lon="6.06204">
        <ele>1340.22</ele>
        <time>2017-07-05T11:25:31Z</time>
      </trkpt>
      <trkpt lat="45.28942" lon="6.06207">
        <ele>1340.22</ele>
        <time>2017-07-05T11:25:32Z</time>
      </trkpt>
      <trkpt lat="45.2894" lon="6.06217">
        <ele>1337.81</ele>
        <time>2017-07-05T11:25:47Z</time>
      </trkpt>
      <trkpt lat="45.28937" lon="6.06241">
        <ele>1333.97</ele>
        <time>2017-07-05T11:25:53Z</time>
      </trkpt>
      <trkpt lat="45.28936" lon="6.0626">
        <ele>1325.8</ele>
        <time>2017-07-05T11:25:58Z</time>
      </trkpt>
      <trkpt lat="45.28935" lon="6.06273">
        <ele>1322.91</ele>
        <time>2017-07-05T11:26:03Z</time>
      </trkpt>
      <trkpt lat="45.28937" lon="6.06288">
        <ele>1320.99</ele>
        <time>2017-07-05T11:26:06Z</time>
      </trkpt>
      <trkpt lat="45.28947" lon="6.063">
        <ele>1315.22</ele>
        <time>2017-07-05T11:26:10Z</time>
      </trkpt>
      <trkpt lat="45.28963" lon="6.06309">
        <ele>1312.34</ele>
        <time>2017-07-05T11:26:19Z</time>
      </trkpt>
      <trkpt lat="45.28973" lon="6.06309">
        <ele>1311.86</ele>
        <time>2017-07-05T11:26:23Z</time>
      </trkpt>
      <trkpt lat="45.28983" lon="6.06308">
        <ele>1311.86</ele>
        <time>2017-07-05T11:26:27Z</time>
      </trkpt>
      <trkpt lat="45.29007" lon="6.06312">
        <ele>1310.9</ele>
        <time>2017-07-05T11:26:37Z</time>
      </trkpt>
      <trkpt lat="45.29014" lon="6.06315">
        <ele>1310.41</ele>
        <time>2017-07-05T11:26:45Z</time>
      </trkpt>
      <trkpt lat="45.29024" lon="6.06318">
        <ele>1306.57</ele>
        <time>2017-07-05T11:26:57Z</time>
      </trkpt>
      <trkpt lat="45.29024" lon="6.06314">
        <ele>1299.36</ele>
        <time>2017-07-05T11:27:24Z</time>
      </trkpt>
      <trkpt lat="45.29026" lon="6.06309">
        <ele>1295.99</ele>
        <time>2017-07-05T11:28:00Z</time>
      </trkpt>
      <trkpt lat="45.29024" lon="6.06306">
        <ele>1295.03</ele>
        <time>2017-07-05T11:28:32Z</time>
      </trkpt>
      <trkpt lat="45.29024" lon="6.06307">
        <ele>1295.51</ele>
        <time>2017-07-05T11:28:54Z</time>
      </trkpt>
      <trkpt lat="45.29028" lon="6.06314">
        <ele>1296.48</ele>
        <time>2017-07-05T11:28:58Z</time>
      </trkpt>
      <trkpt lat="45.29031" lon="6.06322">
        <ele>1295.51</ele>
        <time>2017-07-05T11:29:01Z</time>
      </trkpt>
      <trkpt lat="45.29032" lon="6.06333">
        <ele>1293.59</ele>
        <time>2017-07-05T11:29:05Z</time>
      </trkpt>
      <trkpt lat="45.29034" lon="6.06345">
        <ele>1292.15</ele>
        <time>2017-07-05T11:29:09Z</time>
      </trkpt>
      <trkpt lat="45.29031" lon="6.06364">
        <ele>1287.34</ele>
        <time>2017-07-05T11:29:14Z</time>
      </trkpt>
      <trkpt lat="45.29032" lon="6.06374">
        <ele>1287.34</ele>
        <time>2017-07-05T11:29:18Z</time>
      </trkpt>
      <trkpt lat="45.29035" lon="6.06387">
        <ele>1287.82</ele>
        <time>2017-07-05T11:29:24Z</time>
      </trkpt>
      <trkpt lat="45.29037" lon="6.06401">
        <ele>1287.34</ele>
        <time>2017-07-05T11:29:30Z</time>
      </trkpt>
      <trkpt lat="45.29036" lon="6.06404">
        <ele>1287.82</ele>
        <time>2017-07-05T11:29:32Z</time>
      </trkpt>
      <trkpt lat="45.29033" lon="6.06432">
        <ele>1286.38</ele>
        <time>2017-07-05T11:29:41Z</time>
      </trkpt>
      <trkpt lat="45.29032" lon="6.0644">
        <ele>1286.38</ele>
        <time>2017-07-05T11:29:44Z</time>
      </trkpt>
      <trkpt lat="45.29036" lon="6.06461">
        <ele>1286.86</ele>
        <time>2017-07-05T11:29:50Z</time>
      </trkpt>
      <trkpt lat="45.29038" lon="6.06472">
        <ele>1286.38</ele>
        <time>2017-07-05T11:30:02Z</time>
      </trkpt>
      <trkpt lat="45.29036" lon="6.06476">
        <ele>1285.9</ele>
        <time>2017-07-05T11:30:34Z</time>
      </trkpt>
      <trkpt lat="45.29036" lon="6.06478">
        <ele>1278.21</ele>
        <time>2017-07-05T11:31:05Z</time>
      </trkpt>
      <trkpt lat="45.29038" lon="6.06483">
        <ele>1273.88</ele>
        <time>2017-07-05T11:31:30Z</time>
      </trkpt>
      <trkpt lat="45.29039" lon="6.06492">
        <ele>1266.67</ele>
        <time>2017-07-05T11:31:35Z</time>
      </trkpt>
      <trkpt lat="45.29041" lon="6.06492">
        <ele>1262.35</ele>
        <time>2017-07-05T11:31:49Z</time>
      </trkpt>
      <trkpt lat="45.29049" lon="6.06494">
        <ele>1247.45</ele>
        <time>2017-07-05T11:32:25Z</time>
      </trkpt>
      <trkpt lat="45.29044" lon="6.06505">
        <ele>1233.99</ele>
        <time>2017-07-05T11:32:38Z</time>
      </trkpt>
      <trkpt lat="45.29042" lon="6.0651">
        <ele>1232.07</ele>
        <time>2017-07-05T11:32:43Z</time>
      </trkpt>
      <trkpt lat="45.29041" lon="6.06522">
        <ele>1230.14</ele>
        <time>2017-07-05T11:32:47Z</time>
      </trkpt>
      <trkpt lat="45.29042" lon="6.06527">
        <ele>1229.66</ele>
        <time>2017-07-05T11:32:49Z</time>
      </trkpt>
      <trkpt lat="45.29041" lon="6.06537">
        <ele>1226.78</ele>
        <time>2017-07-05T11:32:54Z</time>
      </trkpt>
      <trkpt lat="45.29037" lon="6.06545">
        <ele>1225.34</ele>
        <time>2017-07-05T11:33:07Z</time>
      </trkpt>
      <trkpt lat="45.29033" lon="6.06552">
        <ele>1222.93</ele>
        <time>2017-07-05T11:33:18Z</time>
      </trkpt>
      <trkpt lat="45.29027" lon="6.06557">
        <ele>1221.97</ele>
        <time>2017-07-05T11:33:22Z</time>
      </trkpt>
      <trkpt lat="45.29022" lon="6.06568">
        <ele>1220.53</ele>
        <time>2017-07-05T11:33:27Z</time>
      </trkpt>
      <trkpt lat="45.29017" lon="6.06579">
        <ele>1219.57</ele>
        <time>2017-07-05T11:33:32Z</time>
      </trkpt>
      <trkpt lat="45.29014" lon="6.06584">
        <ele>1218.61</ele>
        <time>2017-07-05T11:33:35Z</time>
      </trkpt>
      <trkpt lat="45.29009" lon="6.06595">
        <ele>1217.65</ele>
        <time>2017-07-05T11:33:39Z</time>
      </trkpt>
      <trkpt lat="45.28996" lon="6.06615">
        <ele>1215.72</ele>
        <time>2017-07-05T11:33:47Z</time>
      </trkpt>
      <trkpt lat="45.28983" lon="6.06649">
        <ele>1212.84</ele>
        <time>2017-07-05T11:33:53Z</time>
      </trkpt>
      <trkpt lat="45.28978" lon="6.06676">
        <ele>1211.88</ele>
        <time>2017-07-05T11:34:01Z</time>
      </trkpt>
      <trkpt lat="45.28977" lon="6.06679">
        <ele>1211.88</ele>
        <time>2017-07-05T11:34:02Z</time>
      </trkpt>
      <trkpt lat="45.28981" lon="6.06713">
        <ele>1211.88</ele>
        <time>2017-07-05T11:34:09Z</time>
      </trkpt>
      <trkpt lat="45.28986" lon="6.06772">
        <ele>1208.51</ele>
        <time>2017-07-05T11:34:17Z</time>
      </trkpt>
      <trkpt lat="45.28982" lon="6.0683">
        <ele>1198.9</ele>
        <time>2017-07-05T11:34:26Z</time>
      </trkpt>
      <trkpt lat="45.28977" lon="6.0685">
        <ele>1192.65</ele>
        <time>2017-07-05T11:34:29Z</time>
      </trkpt>
      <trkpt lat="45.28974" lon="6.06878">
        <ele>1190.73</ele>
        <time>2017-07-05T11:34:33Z</time>
      </trkpt>
      <trkpt lat="45.28978" lon="6.06918">
        <ele>1187.37</ele>
        <time>2017-07-05T11:34:38Z</time>
      </trkpt>
      <trkpt lat="45.28981" lon="6.06954">
        <ele>1183.52</ele>
        <time>2017-07-05T11:34:43Z</time>
      </trkpt>
      <trkpt lat="45.2899" lon="6.0697">
        <ele>1181.6</ele>
        <time>2017-07-05T11:34:45Z</time>
      </trkpt>
      <trkpt lat="45.29004" lon="6.0699">
        <ele>1180.16</ele>
        <time>2017-07-05T11:34:48Z</time>
      </trkpt>
      <trkpt lat="45.29014" lon="6.0703">
        <ele>1173.43</ele>
        <time>2017-07-05T11:34:53Z</time>
      </trkpt>
      <trkpt lat="45.29013" lon="6.07047">
        <ele>1171.5</ele>
        <time>2017-07-05T11:34:55Z</time>
      </trkpt>
      <trkpt lat="45.29026" lon="6.07094">
        <ele>1163.81</ele>
        <time>2017-07-05T11:35:00Z</time>
      </trkpt>
      <trkpt lat="45.29036" lon="6.07142">
        <ele>1153.24</ele>
        <time>2017-07-05T11:35:05Z</time>
      </trkpt>
      <trkpt lat="45.29035" lon="6.07166">
        <ele>1145.55</ele>
        <time>2017-07-05T11:35:08Z</time>
      </trkpt>
      <trkpt lat="45.2904" lon="6.07195">
        <ele>1133.53</ele>
        <time>2017-07-05T11:35:12Z</time>
      </trkpt>
      <trkpt lat="45.29056" lon="6.07231">
        <ele>1120.55</ele>
        <time>2017-07-05T11:35:17Z</time>
      </trkpt>
      <trkpt lat="45.29046" lon="6.07246">
        <ele>1103.73</ele>
        <time>2017-07-05T11:35:22Z</time>
      </trkpt>
      <trkpt lat="45.29" lon="6.07225">
        <ele>1097</ele>
        <time>2017-07-05T11:35:36Z</time>
      </trkpt>
      <trkpt lat="45.28961" lon="6.07228">
        <ele>1094.12</ele>
        <time>2017-07-05T11:35:48Z</time>
      </trkpt>
      <trkpt lat="45.28943" lon="6.07224">
        <ele>1094.12</ele>
        <time>2017-07-05T11:35:53Z</time>
      </trkpt>
      <trkpt lat="45.28922" lon="6.07203">
        <ele>1095.56</ele>
        <time>2017-07-05T11:35:59Z</time>
      </trkpt>
      <trkpt lat="45.28906" lon="6.07177">
        <ele>1095.56</ele>
        <time>2017-07-05T11:36:04Z</time>
      </trkpt>
      <trkpt lat="45.28888" lon="6.07143">
        <ele>1096.04</ele>
        <time>2017-07-05T11:36:11Z</time>
      </trkpt>
      <trkpt lat="45.2886" lon="6.07157">
        <ele>1094.12</ele>
        <time>2017-07-05T11:36:17Z</time>
      </trkpt>
      <trkpt lat="45.28853" lon="6.07165">
        <ele>1093.64</ele>
        <time>2017-07-05T11:36:18Z</time>
      </trkpt>
      <trkpt lat="45.28819" lon="6.07205">
        <ele>1091.23</ele>
        <time>2017-07-05T11:36:23Z</time>
      </trkpt>
      <trkpt lat="45.28763" lon="6.07225">
        <ele>1084.5</ele>
        <time>2017-07-05T11:36:30Z</time>
      </trkpt>
      <trkpt lat="45.28727" lon="6.07259">
        <ele>1079.22</ele>
        <time>2017-07-05T11:36:34Z</time>
      </trkpt>
      <trkpt lat="45.28685" lon="6.07293">
        <ele>1077.78</ele>
        <time>2017-07-05T11:36:38Z</time>
      </trkpt>
      <trkpt lat="45.28638" lon="6.07356">
        <ele>1074.89</ele>
        <time>2017-07-05T11:36:44Z</time>
      </trkpt>
      <trkpt lat="45.28602" lon="6.07388">
        <ele>1072.01</ele>
        <time>2017-07-05T11:36:50Z</time>
      </trkpt>
      <trkpt lat="45.28611" lon="6.07414">
        <ele>1069.12</ele>
        <time>2017-07-05T11:36:56Z</time>
      </trkpt>
      <trkpt lat="45.28617" lon="6.07406">
        <ele>1066.72</ele>
        <time>2017-07-05T11:37:01Z</time>
      </trkpt>
      <trkpt lat="45.28617" lon="6.07407">
        <ele>1065.28</ele>
        <time>2017-07-05T11:37:10Z</time>
      </trkpt>
      <trkpt lat="45.28607" lon="6.07417">
        <ele>1063.36</ele>
        <time>2017-07-05T11:37:16Z</time>
      </trkpt>
      <trkpt lat="45.28588" lon="6.07434">
        <ele>1062.39</ele>
        <time>2017-07-05T11:37:24Z</time>
      </trkpt>
      <trkpt lat="45.28581" lon="6.07454">
        <ele>1062.87</ele>
        <time>2017-07-05T11:37:30Z</time>
      </trkpt>
      <trkpt lat="45.28542" lon="6.07481">
        <ele>1063.84</ele>
        <time>2017-07-05T11:37:44Z</time>
      </trkpt>
      <trkpt lat="45.28505" lon="6.07489">
        <ele>1063.36</ele>
        <time>2017-07-05T11:37:56Z</time>
      </trkpt>
      <trkpt lat="45.2845" lon="6.07475">
        <ele>1065.28</ele>
        <time>2017-07-05T11:38:13Z</time>
      </trkpt>
      <trkpt lat="45.28399" lon="6.07462">
        <ele>1066.24</ele>
        <time>2017-07-05T11:38:29Z</time>
      </trkpt>
      <trkpt lat="45.28357" lon="6.07447">
        <ele>1067.68</ele>
        <time>2017-07-05T11:38:43Z</time>
      </trkpt>
      <trkpt lat="45.28321" lon="6.07436">
        <ele>1070.08</ele>
        <time>2017-07-05T11:38:56Z</time>
      </trkpt>
      <trkpt lat="45.28278" lon="6.07421">
        <ele>1070.08</ele>
        <time>2017-07-05T11:39:12Z</time>
      </trkpt>
      <trkpt lat="45.28251" lon="6.07411">
        <ele>1072.01</ele>
        <time>2017-07-05T11:39:23Z</time>
      </trkpt>
      <trkpt lat="45.28232" lon="6.07406">
        <ele>1072.49</ele>
        <time>2017-07-05T11:39:31Z</time>
      </trkpt>
      <trkpt lat="45.28214" lon="6.07422">
        <ele>1073.45</ele>
        <time>2017-07-05T11:39:39Z</time>
      </trkpt>
      <trkpt lat="45.28192" lon="6.0748">
        <ele>1072.97</ele>
        <time>2017-07-05T11:39:54Z</time>
      </trkpt>
      <trkpt lat="45.28174" lon="6.07534">
        <ele>1077.29</ele>
        <time>2017-07-05T11:40:10Z</time>
      </trkpt>
      <trkpt lat="45.28159" lon="6.0758">
        <ele>1081.14</ele>
        <time>2017-07-05T11:40:25Z</time>
      </trkpt>
      <trkpt lat="45.28146" lon="6.07619">
        <ele>1082.58</ele>
        <time>2017-07-05T11:40:38Z</time>
      </trkpt>
      <trkpt lat="45.28141" lon="6.07641">
        <ele>1083.06</ele>
        <time>2017-07-05T11:40:46Z</time>
      </trkpt>
      <trkpt lat="45.28145" lon="6.07649">
        <ele>1084.02</ele>
        <time>2017-07-05T11:40:51Z</time>
      </trkpt>
      <trkpt lat="45.28149" lon="6.0765">
        <ele>1082.58</ele>
        <time>2017-07-05T11:41:02Z</time>
      </trkpt>
      <trkpt lat="45.28149" lon="6.07651">
        <ele>1082.58</ele>
        <time>2017-07-05T11:41:19Z</time>
      </trkpt>
    </trkseg>
  </trk>
</gpx>